<?xml version="1.0" encoding="UTF-8" standalone="no" ?>
<gpx xmlns="http://www.topografix.com/GPX/1/1" xmlns:xsi="http://www.w3.org/2001/XMLSchema-instance" xsi:schemaLocation="http://www.topografix.com/GPX/1/1 http://www.topografix.com/GPX/1/1/gpx.xsd" version="1.1" creator="VisuGPX - https://www.visugpx.com">
  <metadata>
    <name>2019-08-18_VTT avec Michel et Julien</name>
  </metadata>
  <trk>
    <name><![CDATA[2019-08-18_Grèzes-Thoras-Grèzes]]></name>
    <trkseg>
      <trkpt lat="44.9203" lon="3.48679">
        <ele>1114.3051757812</ele>
        <time>2019-08-18T07:10:53Z</time>
      </trkpt>
      <trkpt lat="44.92028" lon="3.48687">
        <ele>1114.3051757812</ele>
        <time>2019-08-18T07:11:06Z</time>
      </trkpt>
      <trkpt lat="44.92028" lon="3.48687">
        <ele>1114.3051757812</ele>
        <time>2019-08-18T07:11:08Z</time>
      </trkpt>
      <trkpt lat="44.92025" lon="3.48731">
        <ele>1113.8244628906</ele>
        <time>2019-08-18T07:11:21Z</time>
      </trkpt>
      <trkpt lat="44.92019" lon="3.48756">
        <ele>1112.3825683594</ele>
        <time>2019-08-18T07:11:25Z</time>
      </trkpt>
      <trkpt lat="44.92012" lon="3.48779">
        <ele>1111.4213867188</ele>
        <time>2019-08-18T07:11:29Z</time>
      </trkpt>
      <trkpt lat="44.92014" lon="3.48856">
        <ele>1109.9792480469</ele>
        <time>2019-08-18T07:11:41Z</time>
      </trkpt>
      <trkpt lat="44.92016" lon="3.48876">
        <ele>1109.9792480469</ele>
        <time>2019-08-18T07:11:44Z</time>
      </trkpt>
      <trkpt lat="44.92017" lon="3.48895">
        <ele>1110.4599609375</ele>
        <time>2019-08-18T07:11:48Z</time>
      </trkpt>
      <trkpt lat="44.92005" lon="3.4896">
        <ele>1111.9020996094</ele>
        <time>2019-08-18T07:12:03Z</time>
      </trkpt>
      <trkpt lat="44.92011" lon="3.49006">
        <ele>1114.7858886719</ele>
        <time>2019-08-18T07:12:16Z</time>
      </trkpt>
      <trkpt lat="44.92013" lon="3.49022">
        <ele>1113.3439941406</ele>
        <time>2019-08-18T07:12:31Z</time>
      </trkpt>
      <trkpt lat="44.92011" lon="3.49125">
        <ele>1111.9020996094</ele>
        <time>2019-08-18T07:12:42Z</time>
      </trkpt>
      <trkpt lat="44.91991" lon="3.49199">
        <ele>1110.9406738281</ele>
        <time>2019-08-18T07:12:57Z</time>
      </trkpt>
      <trkpt lat="44.91994" lon="3.49295">
        <ele>1109.9792480469</ele>
        <time>2019-08-18T07:13:16Z</time>
      </trkpt>
      <trkpt lat="44.92009" lon="3.49401">
        <ele>1108.5373535156</ele>
        <time>2019-08-18T07:13:37Z</time>
      </trkpt>
      <trkpt lat="44.92019" lon="3.49459">
        <ele>1105.6535644531</ele>
        <time>2019-08-18T07:13:48Z</time>
      </trkpt>
      <trkpt lat="44.92015" lon="3.49537">
        <ele>1101.8083496094</ele>
        <time>2019-08-18T07:14:03Z</time>
      </trkpt>
      <trkpt lat="44.92011" lon="3.49634">
        <ele>1098.9240722656</ele>
        <time>2019-08-18T07:14:21Z</time>
      </trkpt>
      <trkpt lat="44.92009" lon="3.49693">
        <ele>1095.0788574219</ele>
        <time>2019-08-18T07:14:33Z</time>
      </trkpt>
      <trkpt lat="44.91996" lon="3.4975">
        <ele>1091.7143554688</ele>
        <time>2019-08-18T07:14:46Z</time>
      </trkpt>
      <trkpt lat="44.91994" lon="3.4976">
        <ele>1090.7529296875</ele>
        <time>2019-08-18T07:14:48Z</time>
      </trkpt>
      <trkpt lat="44.9199" lon="3.49796">
        <ele>1088.3498535156</ele>
        <time>2019-08-18T07:14:54Z</time>
      </trkpt>
      <trkpt lat="44.91979" lon="3.49859">
        <ele>1085.4658203125</ele>
        <time>2019-08-18T07:14:59Z</time>
      </trkpt>
      <trkpt lat="44.91979" lon="3.49859">
        <ele>1083.54296875</ele>
        <time>2019-08-18T07:15:01Z</time>
      </trkpt>
      <trkpt lat="44.91978" lon="3.49859">
        <ele>1080.6591796875</ele>
        <time>2019-08-18T07:15:03Z</time>
      </trkpt>
      <trkpt lat="44.91974" lon="3.49861">
        <ele>1080.6591796875</ele>
        <time>2019-08-18T07:15:04Z</time>
      </trkpt>
      <trkpt lat="44.9196" lon="3.49866">
        <ele>1078.7365722656</ele>
        <time>2019-08-18T07:15:08Z</time>
      </trkpt>
      <trkpt lat="44.91961" lon="3.49866">
        <ele>1076.8139648438</ele>
        <time>2019-08-18T07:15:11Z</time>
      </trkpt>
      <trkpt lat="44.9196" lon="3.49981">
        <ele>1074.8913574219</ele>
        <time>2019-08-18T07:15:15Z</time>
      </trkpt>
      <trkpt lat="44.91956" lon="3.50049">
        <ele>1071.5266113281</ele>
        <time>2019-08-18T07:15:24Z</time>
      </trkpt>
      <trkpt lat="44.91958" lon="3.50084">
        <ele>1069.6042480469</ele>
        <time>2019-08-18T07:15:29Z</time>
      </trkpt>
      <trkpt lat="44.91958" lon="3.50091">
        <ele>1069.1235351562</ele>
        <time>2019-08-18T07:15:30Z</time>
      </trkpt>
      <trkpt lat="44.91956" lon="3.50105">
        <ele>1067.2006835938</ele>
        <time>2019-08-18T07:15:32Z</time>
      </trkpt>
      <trkpt lat="44.91952" lon="3.50124">
        <ele>1065.2780761719</ele>
        <time>2019-08-18T07:15:35Z</time>
      </trkpt>
      <trkpt lat="44.91948" lon="3.50146">
        <ele>1063.8359375</ele>
        <time>2019-08-18T07:15:38Z</time>
      </trkpt>
      <trkpt lat="44.91945" lon="3.50164">
        <ele>1059.0295410156</ele>
        <time>2019-08-18T07:15:40Z</time>
      </trkpt>
      <trkpt lat="44.91944" lon="3.50174">
        <ele>1059.0295410156</ele>
        <time>2019-08-18T07:15:41Z</time>
      </trkpt>
      <trkpt lat="44.91943" lon="3.50194">
        <ele>1057.5876464844</ele>
        <time>2019-08-18T07:15:43Z</time>
      </trkpt>
      <trkpt lat="44.91943" lon="3.50219">
        <ele>1056.1455078125</ele>
        <time>2019-08-18T07:15:45Z</time>
      </trkpt>
      <trkpt lat="44.91943" lon="3.50245">
        <ele>1052.7810058594</ele>
        <time>2019-08-18T07:15:47Z</time>
      </trkpt>
      <trkpt lat="44.91944" lon="3.50259">
        <ele>1052.7810058594</ele>
        <time>2019-08-18T07:15:48Z</time>
      </trkpt>
      <trkpt lat="44.91954" lon="3.50337">
        <ele>1049.8969726562</ele>
        <time>2019-08-18T07:15:54Z</time>
      </trkpt>
      <trkpt lat="44.91984" lon="3.50461">
        <ele>1052.3002929688</ele>
        <time>2019-08-18T07:16:05Z</time>
      </trkpt>
      <trkpt lat="44.91986" lon="3.50467">
        <ele>1052.3002929688</ele>
        <time>2019-08-18T07:16:06Z</time>
      </trkpt>
      <trkpt lat="44.91988" lon="3.50477">
        <ele>1055.6650390625</ele>
        <time>2019-08-18T07:16:08Z</time>
      </trkpt>
      <trkpt lat="44.91988" lon="3.5048">
        <ele>1055.6650390625</ele>
        <time>2019-08-18T07:16:09Z</time>
      </trkpt>
      <trkpt lat="44.91982" lon="3.50518">
        <ele>1059.0295410156</ele>
        <time>2019-08-18T07:16:21Z</time>
      </trkpt>
      <trkpt lat="44.9197" lon="3.50588">
        <ele>1059.5102539062</ele>
        <time>2019-08-18T07:16:40Z</time>
      </trkpt>
      <trkpt lat="44.91974" lon="3.50642">
        <ele>1057.5876464844</ele>
        <time>2019-08-18T07:16:51Z</time>
      </trkpt>
      <trkpt lat="44.92001" lon="3.50696">
        <ele>1058.068359375</ele>
        <time>2019-08-18T07:17:07Z</time>
      </trkpt>
      <trkpt lat="44.92018" lon="3.50738">
        <ele>1061.4328613281</ele>
        <time>2019-08-18T07:17:22Z</time>
      </trkpt>
      <trkpt lat="44.92021" lon="3.50745">
        <ele>1062.3940429688</ele>
        <time>2019-08-18T07:17:25Z</time>
      </trkpt>
      <trkpt lat="44.92037" lon="3.50784">
        <ele>1064.3166503906</ele>
        <time>2019-08-18T07:17:42Z</time>
      </trkpt>
      <trkpt lat="44.92053" lon="3.50823">
        <ele>1066.7199707031</ele>
        <time>2019-08-18T07:18:01Z</time>
      </trkpt>
      <trkpt lat="44.92073" lon="3.50872">
        <ele>1068.162109375</ele>
        <time>2019-08-18T07:18:19Z</time>
      </trkpt>
      <trkpt lat="44.92091" lon="3.50914">
        <ele>1070.0847167969</ele>
        <time>2019-08-18T07:18:35Z</time>
      </trkpt>
      <trkpt lat="44.92109" lon="3.50953">
        <ele>1071.5266113281</ele>
        <time>2019-08-18T07:18:51Z</time>
      </trkpt>
      <trkpt lat="44.9213" lon="3.51005">
        <ele>1072.0073242188</ele>
        <time>2019-08-18T07:19:08Z</time>
      </trkpt>
      <trkpt lat="44.92153" lon="3.51088">
        <ele>1068.162109375</ele>
        <time>2019-08-18T07:19:26Z</time>
      </trkpt>
      <trkpt lat="44.92156" lon="3.511">
        <ele>1067.2006835938</ele>
        <time>2019-08-18T07:19:28Z</time>
      </trkpt>
      <trkpt lat="44.92161" lon="3.5112">
        <ele>1067.2006835938</ele>
        <time>2019-08-18T07:19:31Z</time>
      </trkpt>
      <trkpt lat="44.92178" lon="3.51188">
        <ele>1064.7973632812</ele>
        <time>2019-08-18T07:19:41Z</time>
      </trkpt>
      <trkpt lat="44.92186" lon="3.51222">
        <ele>1064.7973632812</ele>
        <time>2019-08-18T07:19:46Z</time>
      </trkpt>
      <trkpt lat="44.92193" lon="3.51251">
        <ele>1064.3166503906</ele>
        <time>2019-08-18T07:19:52Z</time>
      </trkpt>
      <trkpt lat="44.92206" lon="3.51305">
        <ele>1064.3166503906</ele>
        <time>2019-08-18T07:20:03Z</time>
      </trkpt>
      <trkpt lat="44.92214" lon="3.51335">
        <ele>1064.7973632812</ele>
        <time>2019-08-18T07:20:11Z</time>
      </trkpt>
      <trkpt lat="44.92207" lon="3.51353">
        <ele>1064.7973632812</ele>
        <time>2019-08-18T07:20:21Z</time>
      </trkpt>
      <trkpt lat="44.9221" lon="3.51353">
        <ele>1064.7973632812</ele>
        <time>2019-08-18T07:20:25Z</time>
      </trkpt>
      <trkpt lat="44.92217" lon="3.5136">
        <ele>1064.7973632812</ele>
        <time>2019-08-18T07:20:30Z</time>
      </trkpt>
      <trkpt lat="44.92237" lon="3.51412">
        <ele>1065.7587890625</ele>
        <time>2019-08-18T07:20:47Z</time>
      </trkpt>
      <trkpt lat="44.92269" lon="3.51485">
        <ele>1068.162109375</ele>
        <time>2019-08-18T07:21:09Z</time>
      </trkpt>
      <trkpt lat="44.92299" lon="3.51551">
        <ele>1071.0461425781</ele>
        <time>2019-08-18T07:21:28Z</time>
      </trkpt>
      <trkpt lat="44.92316" lon="3.5159">
        <ele>1072.96875</ele>
        <time>2019-08-18T07:21:42Z</time>
      </trkpt>
      <trkpt lat="44.92314" lon="3.51606">
        <ele>1074.4106445312</ele>
        <time>2019-08-18T07:21:52Z</time>
      </trkpt>
      <trkpt lat="44.92292" lon="3.51593">
        <ele>1073.9299316406</ele>
        <time>2019-08-18T07:22:05Z</time>
      </trkpt>
      <trkpt lat="44.92265" lon="3.5158">
        <ele>1073.4494628906</ele>
        <time>2019-08-18T07:22:18Z</time>
      </trkpt>
      <trkpt lat="44.92238" lon="3.51562">
        <ele>1072.4880371094</ele>
        <time>2019-08-18T07:22:29Z</time>
      </trkpt>
      <trkpt lat="44.92219" lon="3.51554">
        <ele>1071.5266113281</ele>
        <time>2019-08-18T07:22:35Z</time>
      </trkpt>
      <trkpt lat="44.92167" lon="3.51541">
        <ele>1069.1235351562</ele>
        <time>2019-08-18T07:22:49Z</time>
      </trkpt>
      <trkpt lat="44.92113" lon="3.51538">
        <ele>1068.6428222656</ele>
        <time>2019-08-18T07:23:06Z</time>
      </trkpt>
      <trkpt lat="44.92104" lon="3.51538">
        <ele>1068.162109375</ele>
        <time>2019-08-18T07:23:09Z</time>
      </trkpt>
      <trkpt lat="44.92063" lon="3.51536">
        <ele>1067.2006835938</ele>
        <time>2019-08-18T07:23:23Z</time>
      </trkpt>
      <trkpt lat="44.9202" lon="3.5154">
        <ele>1065.7587890625</ele>
        <time>2019-08-18T07:23:39Z</time>
      </trkpt>
      <trkpt lat="44.91982" lon="3.51546">
        <ele>1063.35546875</ele>
        <time>2019-08-18T07:23:52Z</time>
      </trkpt>
      <trkpt lat="44.91979" lon="3.51547">
        <ele>1062.8747558594</ele>
        <time>2019-08-18T07:23:53Z</time>
      </trkpt>
      <trkpt lat="44.91963" lon="3.51566">
        <ele>1060.9521484375</ele>
        <time>2019-08-18T07:23:59Z</time>
      </trkpt>
      <trkpt lat="44.91945" lon="3.51596">
        <ele>1059.0295410156</ele>
        <time>2019-08-18T07:24:06Z</time>
      </trkpt>
      <trkpt lat="44.9194" lon="3.51608">
        <ele>1058.548828125</ele>
        <time>2019-08-18T07:24:09Z</time>
      </trkpt>
      <trkpt lat="44.91916" lon="3.51643">
        <ele>1055.1843261719</ele>
        <time>2019-08-18T07:24:18Z</time>
      </trkpt>
      <trkpt lat="44.91893" lon="3.51654">
        <ele>1051.8195800781</ele>
        <time>2019-08-18T07:24:25Z</time>
      </trkpt>
      <trkpt lat="44.91872" lon="3.51674">
        <ele>1047.9743652344</ele>
        <time>2019-08-18T07:24:35Z</time>
      </trkpt>
      <trkpt lat="44.9187" lon="3.51677">
        <ele>1047.9743652344</ele>
        <time>2019-08-18T07:24:36Z</time>
      </trkpt>
      <trkpt lat="44.91856" lon="3.51696">
        <ele>1044.1291503906</ele>
        <time>2019-08-18T07:24:42Z</time>
      </trkpt>
      <trkpt lat="44.91853" lon="3.51701">
        <ele>1044.1291503906</ele>
        <time>2019-08-18T07:24:43Z</time>
      </trkpt>
      <trkpt lat="44.91847" lon="3.51707">
        <ele>1042.6872558594</ele>
        <time>2019-08-18T07:24:45Z</time>
      </trkpt>
      <trkpt lat="44.91829" lon="3.51726">
        <ele>1040.2839355469</ele>
        <time>2019-08-18T07:24:52Z</time>
      </trkpt>
      <trkpt lat="44.91823" lon="3.51734">
        <ele>1038.8420410156</ele>
        <time>2019-08-18T07:24:54Z</time>
      </trkpt>
      <trkpt lat="44.91802" lon="3.51764">
        <ele>1034.9965820312</ele>
        <time>2019-08-18T07:25:00Z</time>
      </trkpt>
      <trkpt lat="44.91799" lon="3.5177">
        <ele>1034.9965820312</ele>
        <time>2019-08-18T07:25:01Z</time>
      </trkpt>
      <trkpt lat="44.91737" lon="3.51839">
        <ele>1033.5544433594</ele>
        <time>2019-08-18T07:25:16Z</time>
      </trkpt>
      <trkpt lat="44.91738" lon="3.5186">
        <ele>1034.03515625</ele>
        <time>2019-08-18T07:25:21Z</time>
      </trkpt>
      <trkpt lat="44.91745" lon="3.51907">
        <ele>1034.03515625</ele>
        <time>2019-08-18T07:25:34Z</time>
      </trkpt>
      <trkpt lat="44.91741" lon="3.51919">
        <ele>1033.5544433594</ele>
        <time>2019-08-18T07:25:38Z</time>
      </trkpt>
      <trkpt lat="44.91736" lon="3.51919">
        <ele>1034.5158691406</ele>
        <time>2019-08-18T07:25:49Z</time>
      </trkpt>
      <trkpt lat="44.91728" lon="3.51917">
        <ele>1034.03515625</ele>
        <time>2019-08-18T07:25:56Z</time>
      </trkpt>
      <trkpt lat="44.91717" lon="3.51923">
        <ele>1035.9577636719</ele>
        <time>2019-08-18T07:26:11Z</time>
      </trkpt>
      <trkpt lat="44.91717" lon="3.51924">
        <ele>1035.4770507812</ele>
        <time>2019-08-18T07:26:41Z</time>
      </trkpt>
      <trkpt lat="44.91697" lon="3.51939">
        <ele>1037.3999023438</ele>
        <time>2019-08-18T07:26:56Z</time>
      </trkpt>
      <trkpt lat="44.91663" lon="3.51983">
        <ele>1039.8032226562</ele>
        <time>2019-08-18T07:27:17Z</time>
      </trkpt>
      <trkpt lat="44.91652" lon="3.52025">
        <ele>1043.1677246094</ele>
        <time>2019-08-18T07:27:33Z</time>
      </trkpt>
      <trkpt lat="44.91638" lon="3.52085">
        <ele>1046.5324707031</ele>
        <time>2019-08-18T07:27:54Z</time>
      </trkpt>
      <trkpt lat="44.91623" lon="3.52142">
        <ele>1049.8969726562</ele>
        <time>2019-08-18T07:28:17Z</time>
      </trkpt>
      <trkpt lat="44.91607" lon="3.52167">
        <ele>1052.7810058594</ele>
        <time>2019-08-18T07:28:33Z</time>
      </trkpt>
      <trkpt lat="44.91585" lon="3.52177">
        <ele>1056.1455078125</ele>
        <time>2019-08-18T07:28:49Z</time>
      </trkpt>
      <trkpt lat="44.91562" lon="3.52182">
        <ele>1058.068359375</ele>
        <time>2019-08-18T07:29:07Z</time>
      </trkpt>
      <trkpt lat="44.91538" lon="3.52195">
        <ele>1061.4328613281</ele>
        <time>2019-08-18T07:29:29Z</time>
      </trkpt>
      <trkpt lat="44.91526" lon="3.52206">
        <ele>1064.7973632812</ele>
        <time>2019-08-18T07:29:43Z</time>
      </trkpt>
      <trkpt lat="44.91525" lon="3.5221">
        <ele>1064.7973632812</ele>
        <time>2019-08-18T07:29:46Z</time>
      </trkpt>
      <trkpt lat="44.91524" lon="3.52218">
        <ele>1065.7587890625</ele>
        <time>2019-08-18T07:29:51Z</time>
      </trkpt>
      <trkpt lat="44.91534" lon="3.52244">
        <ele>1068.6428222656</ele>
        <time>2019-08-18T07:30:09Z</time>
      </trkpt>
      <trkpt lat="44.91539" lon="3.52278">
        <ele>1071.0461425781</ele>
        <time>2019-08-18T07:30:30Z</time>
      </trkpt>
      <trkpt lat="44.91529" lon="3.52322">
        <ele>1072.96875</ele>
        <time>2019-08-18T07:30:51Z</time>
      </trkpt>
      <trkpt lat="44.9152" lon="3.52346">
        <ele>1073.4494628906</ele>
        <time>2019-08-18T07:31:03Z</time>
      </trkpt>
      <trkpt lat="44.91497" lon="3.52375">
        <ele>1076.8139648438</ele>
        <time>2019-08-18T07:31:23Z</time>
      </trkpt>
      <trkpt lat="44.9148" lon="3.52402">
        <ele>1080.1784667969</ele>
        <time>2019-08-18T07:31:43Z</time>
      </trkpt>
      <trkpt lat="44.9147" lon="3.52435">
        <ele>1081.6203613281</ele>
        <time>2019-08-18T07:31:58Z</time>
      </trkpt>
      <trkpt lat="44.91481" lon="3.52485">
        <ele>1084.0239257812</ele>
        <time>2019-08-18T07:32:19Z</time>
      </trkpt>
      <trkpt lat="44.91483" lon="3.52487">
        <ele>1083.54296875</ele>
        <time>2019-08-18T07:32:32Z</time>
      </trkpt>
      <trkpt lat="44.91483" lon="3.52488">
        <ele>1084.0239257812</ele>
        <time>2019-08-18T07:32:57Z</time>
      </trkpt>
      <trkpt lat="44.91483" lon="3.52492">
        <ele>1083.54296875</ele>
        <time>2019-08-18T07:33:00Z</time>
      </trkpt>
      <trkpt lat="44.91485" lon="3.52501">
        <ele>1084.0239257812</ele>
        <time>2019-08-18T07:33:04Z</time>
      </trkpt>
      <trkpt lat="44.91491" lon="3.5252">
        <ele>1084.5046386719</ele>
        <time>2019-08-18T07:33:14Z</time>
      </trkpt>
      <trkpt lat="44.91492" lon="3.52579">
        <ele>1082.5817871094</ele>
        <time>2019-08-18T07:33:32Z</time>
      </trkpt>
      <trkpt lat="44.91504" lon="3.52614">
        <ele>1080.6591796875</ele>
        <time>2019-08-18T07:33:41Z</time>
      </trkpt>
      <trkpt lat="44.91509" lon="3.52636">
        <ele>1079.6977539062</ele>
        <time>2019-08-18T07:33:45Z</time>
      </trkpt>
      <trkpt lat="44.91503" lon="3.52711">
        <ele>1078.7365722656</ele>
        <time>2019-08-18T07:33:59Z</time>
      </trkpt>
      <trkpt lat="44.91505" lon="3.52755">
        <ele>1075.8525390625</ele>
        <time>2019-08-18T07:34:08Z</time>
      </trkpt>
      <trkpt lat="44.91503" lon="3.52794">
        <ele>1073.4494628906</ele>
        <time>2019-08-18T07:34:13Z</time>
      </trkpt>
      <trkpt lat="44.91503" lon="3.52794">
        <ele>1072.4880371094</ele>
        <time>2019-08-18T07:34:15Z</time>
      </trkpt>
      <trkpt lat="44.91498" lon="3.52794">
        <ele>1072.0073242188</ele>
        <time>2019-08-18T07:34:19Z</time>
      </trkpt>
      <trkpt lat="44.91455" lon="3.52776">
        <ele>1073.9299316406</ele>
        <time>2019-08-18T07:34:37Z</time>
      </trkpt>
      <trkpt lat="44.91411" lon="3.52774">
        <ele>1075.3718261719</ele>
        <time>2019-08-18T07:34:53Z</time>
      </trkpt>
      <trkpt lat="44.91364" lon="3.52756">
        <ele>1077.7751464844</ele>
        <time>2019-08-18T07:35:12Z</time>
      </trkpt>
      <trkpt lat="44.91328" lon="3.5274">
        <ele>1079.6977539062</ele>
        <time>2019-08-18T07:35:30Z</time>
      </trkpt>
      <trkpt lat="44.91295" lon="3.52707">
        <ele>1083.0622558594</ele>
        <time>2019-08-18T07:35:51Z</time>
      </trkpt>
      <trkpt lat="44.91254" lon="3.5268">
        <ele>1084.5046386719</ele>
        <time>2019-08-18T07:36:13Z</time>
      </trkpt>
      <trkpt lat="44.91188" lon="3.52672">
        <ele>1085.9465332031</ele>
        <time>2019-08-18T07:36:37Z</time>
      </trkpt>
      <trkpt lat="44.91136" lon="3.52665">
        <ele>1089.3110351562</ele>
        <time>2019-08-18T07:37:00Z</time>
      </trkpt>
      <trkpt lat="44.91116" lon="3.52656">
        <ele>1090.7529296875</ele>
        <time>2019-08-18T07:37:11Z</time>
      </trkpt>
      <trkpt lat="44.9111" lon="3.52654">
        <ele>1091.7143554688</ele>
        <time>2019-08-18T07:37:16Z</time>
      </trkpt>
      <trkpt lat="44.91081" lon="3.5262">
        <ele>1093.15625</ele>
        <time>2019-08-18T07:37:35Z</time>
      </trkpt>
      <trkpt lat="44.91035" lon="3.52564">
        <ele>1094.5981445312</ele>
        <time>2019-08-18T07:37:59Z</time>
      </trkpt>
      <trkpt lat="44.90995" lon="3.52518">
        <ele>1097.0014648438</ele>
        <time>2019-08-18T07:38:17Z</time>
      </trkpt>
      <trkpt lat="44.90955" lon="3.52471">
        <ele>1098.9240722656</ele>
        <time>2019-08-18T07:38:36Z</time>
      </trkpt>
      <trkpt lat="44.90947" lon="3.52472">
        <ele>1099.4047851562</ele>
        <time>2019-08-18T07:38:40Z</time>
      </trkpt>
      <trkpt lat="44.90917" lon="3.52492">
        <ele>1102.76953125</ele>
        <time>2019-08-18T07:39:00Z</time>
      </trkpt>
      <trkpt lat="44.90892" lon="3.5249">
        <ele>1104.2116699219</ele>
        <time>2019-08-18T07:39:14Z</time>
      </trkpt>
      <trkpt lat="44.90885" lon="3.52504">
        <ele>1104.2116699219</ele>
        <time>2019-08-18T07:39:20Z</time>
      </trkpt>
      <trkpt lat="44.90885" lon="3.52511">
        <ele>1104.2116699219</ele>
        <time>2019-08-18T07:39:23Z</time>
      </trkpt>
      <trkpt lat="44.90888" lon="3.52521">
        <ele>1104.2116699219</ele>
        <time>2019-08-18T07:39:28Z</time>
      </trkpt>
      <trkpt lat="44.90897" lon="3.52531">
        <ele>1103.7309570312</ele>
        <time>2019-08-18T07:39:35Z</time>
      </trkpt>
      <trkpt lat="44.90898" lon="3.52534">
        <ele>1103.2502441406</ele>
        <time>2019-08-18T07:39:44Z</time>
      </trkpt>
      <trkpt lat="44.90891" lon="3.52525">
        <ele>1103.7309570312</ele>
        <time>2019-08-18T07:39:56Z</time>
      </trkpt>
      <trkpt lat="44.90886" lon="3.5251">
        <ele>1104.2116699219</ele>
        <time>2019-08-18T07:40:02Z</time>
      </trkpt>
      <trkpt lat="44.90894" lon="3.52489">
        <ele>1104.2116699219</ele>
        <time>2019-08-18T07:40:09Z</time>
      </trkpt>
      <trkpt lat="44.90922" lon="3.52489">
        <ele>1102.76953125</ele>
        <time>2019-08-18T07:40:17Z</time>
      </trkpt>
      <trkpt lat="44.90939" lon="3.52479">
        <ele>1101.8083496094</ele>
        <time>2019-08-18T07:40:22Z</time>
      </trkpt>
      <trkpt lat="44.90946" lon="3.52468">
        <ele>1100.3664550781</ele>
        <time>2019-08-18T07:40:25Z</time>
      </trkpt>
      <trkpt lat="44.90945" lon="3.52459">
        <ele>1099.4047851562</ele>
        <time>2019-08-18T07:40:29Z</time>
      </trkpt>
      <trkpt lat="44.90913" lon="3.52443">
        <ele>1102.2888183594</ele>
        <time>2019-08-18T07:40:44Z</time>
      </trkpt>
      <trkpt lat="44.90868" lon="3.52426">
        <ele>1103.7309570312</ele>
        <time>2019-08-18T07:41:04Z</time>
      </trkpt>
      <trkpt lat="44.90819" lon="3.52393">
        <ele>1105.6535644531</ele>
        <time>2019-08-18T07:41:25Z</time>
      </trkpt>
      <trkpt lat="44.90778" lon="3.5238">
        <ele>1108.0568847656</ele>
        <time>2019-08-18T07:41:46Z</time>
      </trkpt>
      <trkpt lat="44.90768" lon="3.52376">
        <ele>1109.9792480469</ele>
        <time>2019-08-18T07:41:51Z</time>
      </trkpt>
      <trkpt lat="44.90759" lon="3.52363">
        <ele>1111.4213867188</ele>
        <time>2019-08-18T07:41:57Z</time>
      </trkpt>
      <trkpt lat="44.90734" lon="3.52334">
        <ele>1113.3439941406</ele>
        <time>2019-08-18T07:42:15Z</time>
      </trkpt>
      <trkpt lat="44.90701" lon="3.52307">
        <ele>1114.7858886719</ele>
        <time>2019-08-18T07:42:36Z</time>
      </trkpt>
      <trkpt lat="44.90697" lon="3.52305">
        <ele>1115.7473144531</ele>
        <time>2019-08-18T07:42:39Z</time>
      </trkpt>
      <trkpt lat="44.90686" lon="3.52298">
        <ele>1116.7087402344</ele>
        <time>2019-08-18T07:42:50Z</time>
      </trkpt>
      <trkpt lat="44.90649" lon="3.52263">
        <ele>1117.669921875</ele>
        <time>2019-08-18T07:43:09Z</time>
      </trkpt>
      <trkpt lat="44.90614" lon="3.52227">
        <ele>1120.0732421875</ele>
        <time>2019-08-18T07:43:26Z</time>
      </trkpt>
      <trkpt lat="44.90586" lon="3.52177">
        <ele>1121.5151367188</ele>
        <time>2019-08-18T07:43:46Z</time>
      </trkpt>
      <trkpt lat="44.90575" lon="3.52138">
        <ele>1122.4765625</ele>
        <time>2019-08-18T07:44:00Z</time>
      </trkpt>
      <trkpt lat="44.90568" lon="3.52125">
        <ele>1122.4765625</ele>
        <time>2019-08-18T07:44:06Z</time>
      </trkpt>
      <trkpt lat="44.90541" lon="3.52099">
        <ele>1125.3603515625</ele>
        <time>2019-08-18T07:44:22Z</time>
      </trkpt>
      <trkpt lat="44.90516" lon="3.52074">
        <ele>1126.3217773438</ele>
        <time>2019-08-18T07:44:35Z</time>
      </trkpt>
      <trkpt lat="44.90507" lon="3.52067">
        <ele>1127.283203125</ele>
        <time>2019-08-18T07:44:40Z</time>
      </trkpt>
      <trkpt lat="44.9049" lon="3.52049">
        <ele>1129.6862792969</ele>
        <time>2019-08-18T07:44:53Z</time>
      </trkpt>
      <trkpt lat="44.90479" lon="3.52039">
        <ele>1131.1284179688</ele>
        <time>2019-08-18T07:45:03Z</time>
      </trkpt>
      <trkpt lat="44.9045" lon="3.52034">
        <ele>1133.5317382812</ele>
        <time>2019-08-18T07:45:20Z</time>
      </trkpt>
      <trkpt lat="44.90425" lon="3.52042">
        <ele>1135.4543457031</ele>
        <time>2019-08-18T07:45:36Z</time>
      </trkpt>
      <trkpt lat="44.9042" lon="3.52051">
        <ele>1135.9350585938</ele>
        <time>2019-08-18T07:45:40Z</time>
      </trkpt>
      <trkpt lat="44.90397" lon="3.52066">
        <ele>1136.8962402344</ele>
        <time>2019-08-18T07:45:55Z</time>
      </trkpt>
      <trkpt lat="44.9038" lon="3.52074">
        <ele>1138.8190917969</ele>
        <time>2019-08-18T07:46:05Z</time>
      </trkpt>
      <trkpt lat="44.90375" lon="3.52078">
        <ele>1138.8190917969</ele>
        <time>2019-08-18T07:46:08Z</time>
      </trkpt>
      <trkpt lat="44.90374" lon="3.52083">
        <ele>1138.8190917969</ele>
        <time>2019-08-18T07:46:10Z</time>
      </trkpt>
      <trkpt lat="44.90353" lon="3.52113">
        <ele>1139.2995605469</ele>
        <time>2019-08-18T07:46:25Z</time>
      </trkpt>
      <trkpt lat="44.90344" lon="3.52128">
        <ele>1139.2995605469</ele>
        <time>2019-08-18T07:46:32Z</time>
      </trkpt>
      <trkpt lat="44.90338" lon="3.52141">
        <ele>1139.7802734375</ele>
        <time>2019-08-18T07:46:37Z</time>
      </trkpt>
      <trkpt lat="44.90316" lon="3.52173">
        <ele>1139.2995605469</ele>
        <time>2019-08-18T07:46:49Z</time>
      </trkpt>
      <trkpt lat="44.9031" lon="3.5218">
        <ele>1139.2995605469</ele>
        <time>2019-08-18T07:46:53Z</time>
      </trkpt>
      <trkpt lat="44.90308" lon="3.52185">
        <ele>1139.2995605469</ele>
        <time>2019-08-18T07:46:56Z</time>
      </trkpt>
      <trkpt lat="44.90301" lon="3.5222">
        <ele>1138.3383789062</ele>
        <time>2019-08-18T07:47:11Z</time>
      </trkpt>
      <trkpt lat="44.90301" lon="3.52263">
        <ele>1135.9350585938</ele>
        <time>2019-08-18T07:47:23Z</time>
      </trkpt>
      <trkpt lat="44.90306" lon="3.52302">
        <ele>1133.5317382812</ele>
        <time>2019-08-18T07:47:29Z</time>
      </trkpt>
      <trkpt lat="44.90309" lon="3.52336">
        <ele>1130.6477050781</ele>
        <time>2019-08-18T07:47:34Z</time>
      </trkpt>
      <trkpt lat="44.90309" lon="3.52351">
        <ele>1129.2055664062</ele>
        <time>2019-08-18T07:47:36Z</time>
      </trkpt>
      <trkpt lat="44.90306" lon="3.52366">
        <ele>1127.763671875</ele>
        <time>2019-08-18T07:47:38Z</time>
      </trkpt>
      <trkpt lat="44.90301" lon="3.52381">
        <ele>1126.3217773438</ele>
        <time>2019-08-18T07:47:40Z</time>
      </trkpt>
      <trkpt lat="44.90294" lon="3.52393">
        <ele>1121.9958496094</ele>
        <time>2019-08-18T07:47:42Z</time>
      </trkpt>
      <trkpt lat="44.90277" lon="3.52434">
        <ele>1120.0732421875</ele>
        <time>2019-08-18T07:47:47Z</time>
      </trkpt>
      <trkpt lat="44.9026" lon="3.52476">
        <ele>1119.5927734375</ele>
        <time>2019-08-18T07:47:52Z</time>
      </trkpt>
      <trkpt lat="44.90257" lon="3.52504">
        <ele>1122.4765625</ele>
        <time>2019-08-18T07:47:57Z</time>
      </trkpt>
      <trkpt lat="44.90257" lon="3.52522">
        <ele>1123.4379882812</ele>
        <time>2019-08-18T07:48:04Z</time>
      </trkpt>
      <trkpt lat="44.90262" lon="3.52554">
        <ele>1125.3603515625</ele>
        <time>2019-08-18T07:48:17Z</time>
      </trkpt>
      <trkpt lat="44.90267" lon="3.52581">
        <ele>1126.8024902344</ele>
        <time>2019-08-18T07:48:30Z</time>
      </trkpt>
      <trkpt lat="44.90269" lon="3.52583">
        <ele>1127.283203125</ele>
        <time>2019-08-18T07:48:42Z</time>
      </trkpt>
      <trkpt lat="44.90271" lon="3.52588">
        <ele>1126.8024902344</ele>
        <time>2019-08-18T07:49:02Z</time>
      </trkpt>
      <trkpt lat="44.90271" lon="3.52591">
        <ele>1126.8024902344</ele>
        <time>2019-08-18T07:49:24Z</time>
      </trkpt>
      <trkpt lat="44.9028" lon="3.52627">
        <ele>1125.3603515625</ele>
        <time>2019-08-18T07:49:37Z</time>
      </trkpt>
      <trkpt lat="44.90284" lon="3.52646">
        <ele>1123.4379882812</ele>
        <time>2019-08-18T07:49:41Z</time>
      </trkpt>
      <trkpt lat="44.90291" lon="3.52673">
        <ele>1121.9958496094</ele>
        <time>2019-08-18T07:49:45Z</time>
      </trkpt>
      <trkpt lat="44.903" lon="3.52698">
        <ele>1120.5539550781</ele>
        <time>2019-08-18T07:49:49Z</time>
      </trkpt>
      <trkpt lat="44.90313" lon="3.52738">
        <ele>1118.1506347656</ele>
        <time>2019-08-18T07:49:55Z</time>
      </trkpt>
      <trkpt lat="44.90326" lon="3.52788">
        <ele>1117.189453125</ele>
        <time>2019-08-18T07:50:01Z</time>
      </trkpt>
      <trkpt lat="44.90359" lon="3.52904">
        <ele>1114.3051757812</ele>
        <time>2019-08-18T07:50:16Z</time>
      </trkpt>
      <trkpt lat="44.90369" lon="3.53014">
        <ele>1113.3439941406</ele>
        <time>2019-08-18T07:50:30Z</time>
      </trkpt>
      <trkpt lat="44.90375" lon="3.53151">
        <ele>1113.8244628906</ele>
        <time>2019-08-18T07:50:52Z</time>
      </trkpt>
      <trkpt lat="44.90363" lon="3.53197">
        <ele>1113.3439941406</ele>
        <time>2019-08-18T07:51:04Z</time>
      </trkpt>
      <trkpt lat="44.90355" lon="3.53218">
        <ele>1110.4599609375</ele>
        <time>2019-08-18T07:51:08Z</time>
      </trkpt>
      <trkpt lat="44.90353" lon="3.53224">
        <ele>1110.4599609375</ele>
        <time>2019-08-18T07:51:09Z</time>
      </trkpt>
      <trkpt lat="44.9034" lon="3.53254">
        <ele>1109.9792480469</ele>
        <time>2019-08-18T07:51:15Z</time>
      </trkpt>
      <trkpt lat="44.90333" lon="3.53265">
        <ele>1109.4987792969</ele>
        <time>2019-08-18T07:51:26Z</time>
      </trkpt>
      <trkpt lat="44.90333" lon="3.53265">
        <ele>1109.0180664062</ele>
        <time>2019-08-18T07:51:36Z</time>
      </trkpt>
      <trkpt lat="44.90339" lon="3.53293">
        <ele>1108.0568847656</ele>
        <time>2019-08-18T07:51:44Z</time>
      </trkpt>
      <trkpt lat="44.90341" lon="3.53345">
        <ele>1104.6921386719</ele>
        <time>2019-08-18T07:51:52Z</time>
      </trkpt>
      <trkpt lat="44.90342" lon="3.53353">
        <ele>1104.6921386719</ele>
        <time>2019-08-18T07:51:53Z</time>
      </trkpt>
      <trkpt lat="44.90348" lon="3.53498">
        <ele>1103.2502441406</ele>
        <time>2019-08-18T07:52:11Z</time>
      </trkpt>
      <trkpt lat="44.90347" lon="3.53521">
        <ele>1101.3276367188</ele>
        <time>2019-08-18T07:52:14Z</time>
      </trkpt>
      <trkpt lat="44.90342" lon="3.53561">
        <ele>1103.7309570312</ele>
        <time>2019-08-18T07:52:21Z</time>
      </trkpt>
      <trkpt lat="44.90336" lon="3.53624">
        <ele>1104.2116699219</ele>
        <time>2019-08-18T07:52:33Z</time>
      </trkpt>
      <trkpt lat="44.90339" lon="3.53692">
        <ele>1100.8469238281</ele>
        <time>2019-08-18T07:52:43Z</time>
      </trkpt>
      <trkpt lat="44.90339" lon="3.53699">
        <ele>1100.8469238281</ele>
        <time>2019-08-18T07:52:44Z</time>
      </trkpt>
      <trkpt lat="44.90339" lon="3.53726">
        <ele>1099.8854980469</ele>
        <time>2019-08-18T07:52:48Z</time>
      </trkpt>
      <trkpt lat="44.90338" lon="3.5374">
        <ele>1101.3276367188</ele>
        <time>2019-08-18T07:52:50Z</time>
      </trkpt>
      <trkpt lat="44.90337" lon="3.53776">
        <ele>1099.8854980469</ele>
        <time>2019-08-18T07:52:55Z</time>
      </trkpt>
      <trkpt lat="44.90333" lon="3.53902">
        <ele>1099.4047851562</ele>
        <time>2019-08-18T07:53:14Z</time>
      </trkpt>
      <trkpt lat="44.90332" lon="3.53953">
        <ele>1098.9240722656</ele>
        <time>2019-08-18T07:53:21Z</time>
      </trkpt>
      <trkpt lat="44.90335" lon="3.54004">
        <ele>1097.0014648438</ele>
        <time>2019-08-18T07:53:28Z</time>
      </trkpt>
      <trkpt lat="44.90367" lon="3.54138">
        <ele>1096.0402832031</ele>
        <time>2019-08-18T07:53:46Z</time>
      </trkpt>
      <trkpt lat="44.90372" lon="3.54162">
        <ele>1094.5981445312</ele>
        <time>2019-08-18T07:53:49Z</time>
      </trkpt>
      <trkpt lat="44.90373" lon="3.54179">
        <ele>1092.67578125</ele>
        <time>2019-08-18T07:53:51Z</time>
      </trkpt>
      <trkpt lat="44.90373" lon="3.54196">
        <ele>1091.2336425781</ele>
        <time>2019-08-18T07:53:53Z</time>
      </trkpt>
      <trkpt lat="44.90369" lon="3.54244">
        <ele>1089.7917480469</ele>
        <time>2019-08-18T07:53:58Z</time>
      </trkpt>
      <trkpt lat="44.90367" lon="3.54272">
        <ele>1087.3884277344</ele>
        <time>2019-08-18T07:54:01Z</time>
      </trkpt>
      <trkpt lat="44.90361" lon="3.54369">
        <ele>1084.0239257812</ele>
        <time>2019-08-18T07:54:11Z</time>
      </trkpt>
      <trkpt lat="44.90361" lon="3.54379">
        <ele>1084.0239257812</ele>
        <time>2019-08-18T07:54:12Z</time>
      </trkpt>
      <trkpt lat="44.90366" lon="3.54482">
        <ele>1080.1784667969</ele>
        <time>2019-08-18T07:54:22Z</time>
      </trkpt>
      <trkpt lat="44.90368" lon="3.54493">
        <ele>1080.1784667969</ele>
        <time>2019-08-18T07:54:23Z</time>
      </trkpt>
      <trkpt lat="44.90371" lon="3.54513">
        <ele>1078.7365722656</ele>
        <time>2019-08-18T07:54:25Z</time>
      </trkpt>
      <trkpt lat="44.90378" lon="3.54544">
        <ele>1080.1784667969</ele>
        <time>2019-08-18T07:54:28Z</time>
      </trkpt>
      <trkpt lat="44.90413" lon="3.54689">
        <ele>1077.7751464844</ele>
        <time>2019-08-18T07:54:45Z</time>
      </trkpt>
      <trkpt lat="44.90414" lon="3.54696">
        <ele>1077.7751464844</ele>
        <time>2019-08-18T07:54:46Z</time>
      </trkpt>
      <trkpt lat="44.90421" lon="3.54732">
        <ele>1077.7751464844</ele>
        <time>2019-08-18T07:54:55Z</time>
      </trkpt>
      <trkpt lat="44.90429" lon="3.54751">
        <ele>1077.7751464844</ele>
        <time>2019-08-18T07:55:00Z</time>
      </trkpt>
      <trkpt lat="44.90428" lon="3.54749">
        <ele>1077.2946777344</ele>
        <time>2019-08-18T07:55:04Z</time>
      </trkpt>
      <trkpt lat="44.9042" lon="3.54732">
        <ele>1077.7751464844</ele>
        <time>2019-08-18T07:55:17Z</time>
      </trkpt>
      <trkpt lat="44.9042" lon="3.54732">
        <ele>1078.255859375</ele>
        <time>2019-08-18T07:55:57Z</time>
      </trkpt>
      <trkpt lat="44.9042" lon="3.54732">
        <ele>1077.7751464844</ele>
        <time>2019-08-18T07:56:07Z</time>
      </trkpt>
      <trkpt lat="44.90433" lon="3.54761">
        <ele>1077.7751464844</ele>
        <time>2019-08-18T07:56:20Z</time>
      </trkpt>
      <trkpt lat="44.90447" lon="3.54796">
        <ele>1076.8139648438</ele>
        <time>2019-08-18T07:56:29Z</time>
      </trkpt>
      <trkpt lat="44.90449" lon="3.54802">
        <ele>1075.8525390625</ele>
        <time>2019-08-18T07:56:34Z</time>
      </trkpt>
      <trkpt lat="44.90413" lon="3.54832">
        <ele>1072.96875</ele>
        <time>2019-08-18T07:56:45Z</time>
      </trkpt>
      <trkpt lat="44.90371" lon="3.54859">
        <ele>1068.6428222656</ele>
        <time>2019-08-18T07:56:55Z</time>
      </trkpt>
      <trkpt lat="44.90366" lon="3.54862">
        <ele>1068.6428222656</ele>
        <time>2019-08-18T07:56:56Z</time>
      </trkpt>
      <trkpt lat="44.90332" lon="3.54884">
        <ele>1066.2392578125</ele>
        <time>2019-08-18T07:57:03Z</time>
      </trkpt>
      <trkpt lat="44.90299" lon="3.54916">
        <ele>1063.8359375</ele>
        <time>2019-08-18T07:57:10Z</time>
      </trkpt>
      <trkpt lat="44.90266" lon="3.54953">
        <ele>1060.9521484375</ele>
        <time>2019-08-18T07:57:17Z</time>
      </trkpt>
      <trkpt lat="44.9023" lon="3.54995">
        <ele>1059.0295410156</ele>
        <time>2019-08-18T07:57:24Z</time>
      </trkpt>
      <trkpt lat="44.90207" lon="3.55022">
        <ele>1056.6262207031</ele>
        <time>2019-08-18T07:57:28Z</time>
      </trkpt>
      <trkpt lat="44.90195" lon="3.55036">
        <ele>1053.7424316406</ele>
        <time>2019-08-18T07:57:30Z</time>
      </trkpt>
      <trkpt lat="44.90189" lon="3.55043">
        <ele>1053.7424316406</ele>
        <time>2019-08-18T07:57:31Z</time>
      </trkpt>
      <trkpt lat="44.90148" lon="3.5509">
        <ele>1051.3388671875</ele>
        <time>2019-08-18T07:57:38Z</time>
      </trkpt>
      <trkpt lat="44.90109" lon="3.55136">
        <ele>1049.4162597656</ele>
        <time>2019-08-18T07:57:45Z</time>
      </trkpt>
      <trkpt lat="44.90098" lon="3.55149">
        <ele>1051.3388671875</ele>
        <time>2019-08-18T07:57:47Z</time>
      </trkpt>
      <trkpt lat="44.90033" lon="3.55203">
        <ele>1048.4548339844</ele>
        <time>2019-08-18T07:57:58Z</time>
      </trkpt>
      <trkpt lat="44.90025" lon="3.55209">
        <ele>1048.4548339844</ele>
        <time>2019-08-18T07:57:59Z</time>
      </trkpt>
      <trkpt lat="44.9001" lon="3.5522">
        <ele>1047.0129394531</ele>
        <time>2019-08-18T07:58:01Z</time>
      </trkpt>
      <trkpt lat="44.89995" lon="3.5523">
        <ele>1045.0903320312</ele>
        <time>2019-08-18T07:58:03Z</time>
      </trkpt>
      <trkpt lat="44.89984" lon="3.55239">
        <ele>1048.935546875</ele>
        <time>2019-08-18T07:58:05Z</time>
      </trkpt>
      <trkpt lat="44.89967" lon="3.55217">
        <ele>1052.3002929688</ele>
        <time>2019-08-18T07:58:07Z</time>
      </trkpt>
      <trkpt lat="44.89962" lon="3.55215">
        <ele>1052.3002929688</ele>
        <time>2019-08-18T07:58:08Z</time>
      </trkpt>
      <trkpt lat="44.89962" lon="3.55215">
        <ele>1053.7424316406</ele>
        <time>2019-08-18T07:58:09Z</time>
      </trkpt>
      <trkpt lat="44.89962" lon="3.55215">
        <ele>1057.1069335938</ele>
        <time>2019-08-18T07:58:14Z</time>
      </trkpt>
      <trkpt lat="44.89962" lon="3.55215">
        <ele>1058.548828125</ele>
        <time>2019-08-18T07:58:17Z</time>
      </trkpt>
      <trkpt lat="44.89919" lon="3.55175">
        <ele>1061.4328613281</ele>
        <time>2019-08-18T07:58:24Z</time>
      </trkpt>
      <trkpt lat="44.89888" lon="3.55164">
        <ele>1063.8359375</ele>
        <time>2019-08-18T07:58:41Z</time>
      </trkpt>
      <trkpt lat="44.89878" lon="3.55159">
        <ele>1064.3166503906</ele>
        <time>2019-08-18T07:58:48Z</time>
      </trkpt>
      <trkpt lat="44.89876" lon="3.55157">
        <ele>1064.3166503906</ele>
        <time>2019-08-18T07:58:50Z</time>
      </trkpt>
      <trkpt lat="44.89859" lon="3.55145">
        <ele>1067.2006835938</ele>
        <time>2019-08-18T07:59:07Z</time>
      </trkpt>
      <trkpt lat="44.89854" lon="3.5514">
        <ele>1067.6811523438</ele>
        <time>2019-08-18T07:59:12Z</time>
      </trkpt>
      <trkpt lat="44.8985" lon="3.55137">
        <ele>1068.162109375</ele>
        <time>2019-08-18T07:59:16Z</time>
      </trkpt>
      <trkpt lat="44.89849" lon="3.55135">
        <ele>1068.6428222656</ele>
        <time>2019-08-18T07:59:18Z</time>
      </trkpt>
      <trkpt lat="44.89846" lon="3.55132">
        <ele>1069.1235351562</ele>
        <time>2019-08-18T07:59:21Z</time>
      </trkpt>
      <trkpt lat="44.8983" lon="3.55116">
        <ele>1072.4880371094</ele>
        <time>2019-08-18T07:59:37Z</time>
      </trkpt>
      <trkpt lat="44.89799" lon="3.55095">
        <ele>1075.8525390625</ele>
        <time>2019-08-18T07:59:58Z</time>
      </trkpt>
      <trkpt lat="44.89775" lon="3.55084">
        <ele>1077.7751464844</ele>
        <time>2019-08-18T08:00:15Z</time>
      </trkpt>
      <trkpt lat="44.89749" lon="3.55074">
        <ele>1079.6977539062</ele>
        <time>2019-08-18T08:00:33Z</time>
      </trkpt>
      <trkpt lat="44.89721" lon="3.55068">
        <ele>1082.5817871094</ele>
        <time>2019-08-18T08:00:50Z</time>
      </trkpt>
      <trkpt lat="44.89685" lon="3.55065">
        <ele>1086.4272460938</ele>
        <time>2019-08-18T08:01:12Z</time>
      </trkpt>
      <trkpt lat="44.89644" lon="3.55054">
        <ele>1089.3110351562</ele>
        <time>2019-08-18T08:01:37Z</time>
      </trkpt>
      <trkpt lat="44.89613" lon="3.55039">
        <ele>1091.7143554688</ele>
        <time>2019-08-18T08:01:56Z</time>
      </trkpt>
      <trkpt lat="44.89579" lon="3.55027">
        <ele>1093.6369628906</ele>
        <time>2019-08-18T08:02:16Z</time>
      </trkpt>
      <trkpt lat="44.89543" lon="3.55026">
        <ele>1095.5595703125</ele>
        <time>2019-08-18T08:02:35Z</time>
      </trkpt>
      <trkpt lat="44.89504" lon="3.55039">
        <ele>1097.962890625</ele>
        <time>2019-08-18T08:02:53Z</time>
      </trkpt>
      <trkpt lat="44.89471" lon="3.55056">
        <ele>1098.443359375</ele>
        <time>2019-08-18T08:03:08Z</time>
      </trkpt>
      <trkpt lat="44.89425" lon="3.55063">
        <ele>1099.4047851562</ele>
        <time>2019-08-18T08:03:27Z</time>
      </trkpt>
      <trkpt lat="44.89381" lon="3.55074">
        <ele>1102.76953125</ele>
        <time>2019-08-18T08:03:47Z</time>
      </trkpt>
      <trkpt lat="44.89347" lon="3.55093">
        <ele>1104.2116699219</ele>
        <time>2019-08-18T08:04:06Z</time>
      </trkpt>
      <trkpt lat="44.89312" lon="3.55117">
        <ele>1104.6921386719</ele>
        <time>2019-08-18T08:04:24Z</time>
      </trkpt>
      <trkpt lat="44.89265" lon="3.55157">
        <ele>1104.6921386719</ele>
        <time>2019-08-18T08:04:46Z</time>
      </trkpt>
      <trkpt lat="44.89207" lon="3.55213">
        <ele>1106.6147460938</ele>
        <time>2019-08-18T08:05:13Z</time>
      </trkpt>
      <trkpt lat="44.89169" lon="3.55264">
        <ele>1107.0954589844</ele>
        <time>2019-08-18T08:05:32Z</time>
      </trkpt>
      <trkpt lat="44.89135" lon="3.55326">
        <ele>1108.5373535156</ele>
        <time>2019-08-18T08:05:54Z</time>
      </trkpt>
      <trkpt lat="44.89097" lon="3.55347">
        <ele>1109.0180664062</ele>
        <time>2019-08-18T08:06:12Z</time>
      </trkpt>
      <trkpt lat="44.89063" lon="3.55352">
        <ele>1110.9406738281</ele>
        <time>2019-08-18T08:06:29Z</time>
      </trkpt>
      <trkpt lat="44.89031" lon="3.55358">
        <ele>1112.3825683594</ele>
        <time>2019-08-18T08:06:46Z</time>
      </trkpt>
      <trkpt lat="44.89008" lon="3.55363">
        <ele>1113.8244628906</ele>
        <time>2019-08-18T08:06:58Z</time>
      </trkpt>
      <trkpt lat="44.88984" lon="3.55367">
        <ele>1114.7858886719</ele>
        <time>2019-08-18T08:07:10Z</time>
      </trkpt>
      <trkpt lat="44.8895" lon="3.55373">
        <ele>1115.7473144531</ele>
        <time>2019-08-18T08:07:24Z</time>
      </trkpt>
      <trkpt lat="44.88908" lon="3.5538">
        <ele>1116.2280273438</ele>
        <time>2019-08-18T08:07:43Z</time>
      </trkpt>
      <trkpt lat="44.88855" lon="3.55393">
        <ele>1118.1506347656</ele>
        <time>2019-08-18T08:08:07Z</time>
      </trkpt>
      <trkpt lat="44.88824" lon="3.55399">
        <ele>1118.6313476562</ele>
        <time>2019-08-18T08:08:22Z</time>
      </trkpt>
      <trkpt lat="44.88782" lon="3.55392">
        <ele>1120.5539550781</ele>
        <time>2019-08-18T08:08:45Z</time>
      </trkpt>
      <trkpt lat="44.88755" lon="3.55383">
        <ele>1122.9572753906</ele>
        <time>2019-08-18T08:09:02Z</time>
      </trkpt>
      <trkpt lat="44.88753" lon="3.55383">
        <ele>1122.9572753906</ele>
        <time>2019-08-18T08:09:03Z</time>
      </trkpt>
      <trkpt lat="44.88729" lon="3.55394">
        <ele>1124.3991699219</ele>
        <time>2019-08-18T08:09:19Z</time>
      </trkpt>
      <trkpt lat="44.88708" lon="3.554">
        <ele>1126.8024902344</ele>
        <time>2019-08-18T08:09:32Z</time>
      </trkpt>
      <trkpt lat="44.88677" lon="3.55399">
        <ele>1128.2443847656</ele>
        <time>2019-08-18T08:09:51Z</time>
      </trkpt>
      <trkpt lat="44.8864" lon="3.55393">
        <ele>1130.1669921875</ele>
        <time>2019-08-18T08:10:13Z</time>
      </trkpt>
      <trkpt lat="44.88616" lon="3.55395">
        <ele>1129.6862792969</ele>
        <time>2019-08-18T08:10:25Z</time>
      </trkpt>
      <trkpt lat="44.88574" lon="3.55413">
        <ele>1128.7250976562</ele>
        <time>2019-08-18T08:10:41Z</time>
      </trkpt>
      <trkpt lat="44.88532" lon="3.55414">
        <ele>1125.3603515625</ele>
        <time>2019-08-18T08:10:56Z</time>
      </trkpt>
      <trkpt lat="44.8852" lon="3.55414">
        <ele>1124.3991699219</ele>
        <time>2019-08-18T08:10:59Z</time>
      </trkpt>
      <trkpt lat="44.88507" lon="3.55415">
        <ele>1123.4379882812</ele>
        <time>2019-08-18T08:11:02Z</time>
      </trkpt>
      <trkpt lat="44.8849" lon="3.55411">
        <ele>1122.4765625</ele>
        <time>2019-08-18T08:11:06Z</time>
      </trkpt>
      <trkpt lat="44.88467" lon="3.55421">
        <ele>1119.1120605469</ele>
        <time>2019-08-18T08:11:11Z</time>
      </trkpt>
      <trkpt lat="44.88387" lon="3.55541">
        <ele>1116.7087402344</ele>
        <time>2019-08-18T08:11:29Z</time>
      </trkpt>
      <trkpt lat="44.88372" lon="3.5554">
        <ele>1115.7473144531</ele>
        <time>2019-08-18T08:11:33Z</time>
      </trkpt>
      <trkpt lat="44.88364" lon="3.55539">
        <ele>1116.7087402344</ele>
        <time>2019-08-18T08:11:35Z</time>
      </trkpt>
      <trkpt lat="44.88285" lon="3.55547">
        <ele>1114.3051757812</ele>
        <time>2019-08-18T08:11:53Z</time>
      </trkpt>
      <trkpt lat="44.88274" lon="3.5555">
        <ele>1112.86328125</ele>
        <time>2019-08-18T08:11:55Z</time>
      </trkpt>
      <trkpt lat="44.88248" lon="3.55568">
        <ele>1112.86328125</ele>
        <time>2019-08-18T08:12:01Z</time>
      </trkpt>
      <trkpt lat="44.88213" lon="3.55592">
        <ele>1111.9020996094</ele>
        <time>2019-08-18T08:12:11Z</time>
      </trkpt>
      <trkpt lat="44.88197" lon="3.55603">
        <ele>1109.9792480469</ele>
        <time>2019-08-18T08:12:15Z</time>
      </trkpt>
      <trkpt lat="44.88158" lon="3.55622">
        <ele>1106.6147460938</ele>
        <time>2019-08-18T08:12:22Z</time>
      </trkpt>
      <trkpt lat="44.88144" lon="3.55629">
        <ele>1105.6535644531</ele>
        <time>2019-08-18T08:12:24Z</time>
      </trkpt>
      <trkpt lat="44.88122" lon="3.55639">
        <ele>1104.6921386719</ele>
        <time>2019-08-18T08:12:27Z</time>
      </trkpt>
      <trkpt lat="44.88086" lon="3.55646">
        <ele>1101.8083496094</ele>
        <time>2019-08-18T08:12:32Z</time>
      </trkpt>
      <trkpt lat="44.88052" lon="3.55644">
        <ele>1100.8469238281</ele>
        <time>2019-08-18T08:12:41Z</time>
      </trkpt>
      <trkpt lat="44.88037" lon="3.55638">
        <ele>1097.4821777344</ele>
        <time>2019-08-18T08:12:45Z</time>
      </trkpt>
      <trkpt lat="44.88032" lon="3.55636">
        <ele>1097.4821777344</ele>
        <time>2019-08-18T08:12:46Z</time>
      </trkpt>
      <trkpt lat="44.88022" lon="3.55633">
        <ele>1095.5595703125</ele>
        <time>2019-08-18T08:12:48Z</time>
      </trkpt>
      <trkpt lat="44.88015" lon="3.5563">
        <ele>1094.1176757812</ele>
        <time>2019-08-18T08:12:50Z</time>
      </trkpt>
      <trkpt lat="44.87985" lon="3.55628">
        <ele>1093.6369628906</ele>
        <time>2019-08-18T08:12:59Z</time>
      </trkpt>
      <trkpt lat="44.87959" lon="3.55637">
        <ele>1090.7529296875</ele>
        <time>2019-08-18T08:13:08Z</time>
      </trkpt>
      <trkpt lat="44.87944" lon="3.55628">
        <ele>1089.3110351562</ele>
        <time>2019-08-18T08:13:11Z</time>
      </trkpt>
      <trkpt lat="44.87933" lon="3.55622">
        <ele>1087.3884277344</ele>
        <time>2019-08-18T08:13:13Z</time>
      </trkpt>
      <trkpt lat="44.87928" lon="3.55619">
        <ele>1085.4658203125</ele>
        <time>2019-08-18T08:13:14Z</time>
      </trkpt>
      <trkpt lat="44.87919" lon="3.55614">
        <ele>1084.0239257812</ele>
        <time>2019-08-18T08:13:16Z</time>
      </trkpt>
      <trkpt lat="44.87903" lon="3.55612">
        <ele>1084.0239257812</ele>
        <time>2019-08-18T08:13:19Z</time>
      </trkpt>
      <trkpt lat="44.87881" lon="3.5561">
        <ele>1081.1398925781</ele>
        <time>2019-08-18T08:13:23Z</time>
      </trkpt>
      <trkpt lat="44.87855" lon="3.55607">
        <ele>1078.7365722656</ele>
        <time>2019-08-18T08:13:27Z</time>
      </trkpt>
      <trkpt lat="44.87833" lon="3.55607">
        <ele>1075.8525390625</ele>
        <time>2019-08-18T08:13:30Z</time>
      </trkpt>
      <trkpt lat="44.87812" lon="3.55617">
        <ele>1073.4494628906</ele>
        <time>2019-08-18T08:13:33Z</time>
      </trkpt>
      <trkpt lat="44.8779" lon="3.55627">
        <ele>1072.0073242188</ele>
        <time>2019-08-18T08:13:36Z</time>
      </trkpt>
      <trkpt lat="44.87777" lon="3.55634">
        <ele>1070.5654296875</ele>
        <time>2019-08-18T08:13:38Z</time>
      </trkpt>
      <trkpt lat="44.87741" lon="3.55651">
        <ele>1067.2006835938</ele>
        <time>2019-08-18T08:13:44Z</time>
      </trkpt>
      <trkpt lat="44.87735" lon="3.55654">
        <ele>1067.2006835938</ele>
        <time>2019-08-18T08:13:45Z</time>
      </trkpt>
      <trkpt lat="44.87706" lon="3.55667">
        <ele>1064.3166503906</ele>
        <time>2019-08-18T08:13:50Z</time>
      </trkpt>
      <trkpt lat="44.87677" lon="3.55685">
        <ele>1062.3940429688</ele>
        <time>2019-08-18T08:13:55Z</time>
      </trkpt>
      <trkpt lat="44.87662" lon="3.557">
        <ele>1058.548828125</ele>
        <time>2019-08-18T08:13:59Z</time>
      </trkpt>
      <trkpt lat="44.87662" lon="3.557">
        <ele>1058.548828125</ele>
        <time>2019-08-18T08:14:00Z</time>
      </trkpt>
      <trkpt lat="44.87641" lon="3.55715">
        <ele>1056.6262207031</ele>
        <time>2019-08-18T08:14:02Z</time>
      </trkpt>
      <trkpt lat="44.87616" lon="3.55735">
        <ele>1055.1843261719</ele>
        <time>2019-08-18T08:14:11Z</time>
      </trkpt>
      <trkpt lat="44.87606" lon="3.55742">
        <ele>1054.2231445312</ele>
        <time>2019-08-18T08:14:23Z</time>
      </trkpt>
      <trkpt lat="44.87606" lon="3.55742">
        <ele>1054.7036132812</ele>
        <time>2019-08-18T08:14:33Z</time>
      </trkpt>
      <trkpt lat="44.87575" lon="3.55776">
        <ele>1053.26171875</ele>
        <time>2019-08-18T08:14:52Z</time>
      </trkpt>
      <trkpt lat="44.87533" lon="3.5582">
        <ele>1050.8581542969</ele>
        <time>2019-08-18T08:15:12Z</time>
      </trkpt>
      <trkpt lat="44.87483" lon="3.55861">
        <ele>1050.8581542969</ele>
        <time>2019-08-18T08:15:22Z</time>
      </trkpt>
      <trkpt lat="44.87465" lon="3.55868">
        <ele>1052.3002929688</ele>
        <time>2019-08-18T08:15:28Z</time>
      </trkpt>
      <trkpt lat="44.87437" lon="3.55878">
        <ele>1055.1843261719</ele>
        <time>2019-08-18T08:15:43Z</time>
      </trkpt>
      <trkpt lat="44.87435" lon="3.55879">
        <ele>1055.1843261719</ele>
        <time>2019-08-18T08:15:44Z</time>
      </trkpt>
      <trkpt lat="44.87415" lon="3.55887">
        <ele>1059.0295410156</ele>
        <time>2019-08-18T08:15:57Z</time>
      </trkpt>
      <trkpt lat="44.87387" lon="3.559">
        <ele>1061.9135742188</ele>
        <time>2019-08-18T08:16:17Z</time>
      </trkpt>
      <trkpt lat="44.87357" lon="3.55912">
        <ele>1064.3166503906</ele>
        <time>2019-08-18T08:16:38Z</time>
      </trkpt>
      <trkpt lat="44.87348" lon="3.55917">
        <ele>1064.7973632812</ele>
        <time>2019-08-18T08:16:44Z</time>
      </trkpt>
      <trkpt lat="44.87323" lon="3.55942">
        <ele>1068.162109375</ele>
        <time>2019-08-18T08:17:06Z</time>
      </trkpt>
      <trkpt lat="44.87313" lon="3.55954">
        <ele>1070.0847167969</ele>
        <time>2019-08-18T08:17:16Z</time>
      </trkpt>
      <trkpt lat="44.873" lon="3.5597">
        <ele>1073.4494628906</ele>
        <time>2019-08-18T08:17:29Z</time>
      </trkpt>
      <trkpt lat="44.87284" lon="3.55991">
        <ele>1076.8139648438</ele>
        <time>2019-08-18T08:17:48Z</time>
      </trkpt>
      <trkpt lat="44.87272" lon="3.56009">
        <ele>1079.6977539062</ele>
        <time>2019-08-18T08:18:02Z</time>
      </trkpt>
      <trkpt lat="44.87267" lon="3.5602">
        <ele>1081.1398925781</ele>
        <time>2019-08-18T08:18:18Z</time>
      </trkpt>
      <trkpt lat="44.87256" lon="3.56033">
        <ele>1084.0239257812</ele>
        <time>2019-08-18T08:18:36Z</time>
      </trkpt>
      <trkpt lat="44.87251" lon="3.56038">
        <ele>1084.5046386719</ele>
        <time>2019-08-18T08:18:46Z</time>
      </trkpt>
      <trkpt lat="44.87236" lon="3.56051">
        <ele>1085.9465332031</ele>
        <time>2019-08-18T08:19:05Z</time>
      </trkpt>
      <trkpt lat="44.87202" lon="3.56072">
        <ele>1087.3884277344</ele>
        <time>2019-08-18T08:19:21Z</time>
      </trkpt>
      <trkpt lat="44.87163" lon="3.56099">
        <ele>1090.7529296875</ele>
        <time>2019-08-18T08:19:41Z</time>
      </trkpt>
      <trkpt lat="44.87121" lon="3.56116">
        <ele>1093.15625</ele>
        <time>2019-08-18T08:20:04Z</time>
      </trkpt>
      <trkpt lat="44.87097" lon="3.56143">
        <ele>1097.0014648438</ele>
        <time>2019-08-18T08:20:23Z</time>
      </trkpt>
      <trkpt lat="44.87073" lon="3.56174">
        <ele>1099.8854980469</ele>
        <time>2019-08-18T08:20:48Z</time>
      </trkpt>
      <trkpt lat="44.8706" lon="3.56195">
        <ele>1102.76953125</ele>
        <time>2019-08-18T08:21:04Z</time>
      </trkpt>
      <trkpt lat="44.87042" lon="3.5622">
        <ele>1106.1340332031</ele>
        <time>2019-08-18T08:21:26Z</time>
      </trkpt>
      <trkpt lat="44.87039" lon="3.56222">
        <ele>1106.1340332031</ele>
        <time>2019-08-18T08:21:29Z</time>
      </trkpt>
      <trkpt lat="44.87035" lon="3.56224">
        <ele>1108.0568847656</ele>
        <time>2019-08-18T08:21:32Z</time>
      </trkpt>
      <trkpt lat="44.87028" lon="3.56235">
        <ele>1109.0180664062</ele>
        <time>2019-08-18T08:21:43Z</time>
      </trkpt>
      <trkpt lat="44.87025" lon="3.56239">
        <ele>1109.4987792969</ele>
        <time>2019-08-18T08:21:47Z</time>
      </trkpt>
      <trkpt lat="44.87021" lon="3.56246">
        <ele>1110.9406738281</ele>
        <time>2019-08-18T08:21:53Z</time>
      </trkpt>
      <trkpt lat="44.87019" lon="3.56255">
        <ele>1111.9020996094</ele>
        <time>2019-08-18T08:22:00Z</time>
      </trkpt>
      <trkpt lat="44.87017" lon="3.5626">
        <ele>1112.86328125</ele>
        <time>2019-08-18T08:22:04Z</time>
      </trkpt>
      <trkpt lat="44.86994" lon="3.56275">
        <ele>1115.7473144531</ele>
        <time>2019-08-18T08:22:26Z</time>
      </trkpt>
      <trkpt lat="44.8697" lon="3.56293">
        <ele>1119.1120605469</ele>
        <time>2019-08-18T08:22:51Z</time>
      </trkpt>
      <trkpt lat="44.86962" lon="3.56303">
        <ele>1119.5927734375</ele>
        <time>2019-08-18T08:23:01Z</time>
      </trkpt>
      <trkpt lat="44.86954" lon="3.56309">
        <ele>1120.5539550781</ele>
        <time>2019-08-18T08:23:24Z</time>
      </trkpt>
      <trkpt lat="44.86952" lon="3.5631">
        <ele>1121.0346679688</ele>
        <time>2019-08-18T08:24:09Z</time>
      </trkpt>
      <trkpt lat="44.86941" lon="3.56318">
        <ele>1119.1120605469</ele>
        <time>2019-08-18T08:24:32Z</time>
      </trkpt>
      <trkpt lat="44.86922" lon="3.56327">
        <ele>1118.1506347656</ele>
        <time>2019-08-18T08:24:39Z</time>
      </trkpt>
      <trkpt lat="44.86901" lon="3.56337">
        <ele>1114.3051757812</ele>
        <time>2019-08-18T08:24:47Z</time>
      </trkpt>
      <trkpt lat="44.86898" lon="3.56339">
        <ele>1114.3051757812</ele>
        <time>2019-08-18T08:24:48Z</time>
      </trkpt>
      <trkpt lat="44.86879" lon="3.56342">
        <ele>1110.4599609375</ele>
        <time>2019-08-18T08:24:54Z</time>
      </trkpt>
      <trkpt lat="44.86857" lon="3.56347">
        <ele>1107.576171875</ele>
        <time>2019-08-18T08:25:01Z</time>
      </trkpt>
      <trkpt lat="44.86838" lon="3.56338">
        <ele>1104.6921386719</ele>
        <time>2019-08-18T08:25:06Z</time>
      </trkpt>
      <trkpt lat="44.86826" lon="3.56331">
        <ele>1102.2888183594</ele>
        <time>2019-08-18T08:25:09Z</time>
      </trkpt>
      <trkpt lat="44.86822" lon="3.56329">
        <ele>1101.8083496094</ele>
        <time>2019-08-18T08:25:10Z</time>
      </trkpt>
      <trkpt lat="44.86804" lon="3.56318">
        <ele>1100.8469238281</ele>
        <time>2019-08-18T08:25:14Z</time>
      </trkpt>
      <trkpt lat="44.86793" lon="3.56314">
        <ele>1098.443359375</ele>
        <time>2019-08-18T08:25:16Z</time>
      </trkpt>
      <trkpt lat="44.86726" lon="3.56292">
        <ele>1096.0402832031</ele>
        <time>2019-08-18T08:25:27Z</time>
      </trkpt>
      <trkpt lat="44.86725" lon="3.56291">
        <ele>1094.5981445312</ele>
        <time>2019-08-18T08:25:33Z</time>
      </trkpt>
      <trkpt lat="44.86723" lon="3.5629">
        <ele>1095.5595703125</ele>
        <time>2019-08-18T08:25:52Z</time>
      </trkpt>
      <trkpt lat="44.86723" lon="3.5629">
        <ele>1094.5981445312</ele>
        <time>2019-08-18T08:26:14Z</time>
      </trkpt>
      <trkpt lat="44.86723" lon="3.5629">
        <ele>1095.0788574219</ele>
        <time>2019-08-18T08:27:53Z</time>
      </trkpt>
      <trkpt lat="44.86723" lon="3.5629">
        <ele>1095.5595703125</ele>
        <time>2019-08-18T08:28:06Z</time>
      </trkpt>
      <trkpt lat="44.86695" lon="3.56277">
        <ele>1093.6369628906</ele>
        <time>2019-08-18T08:28:21Z</time>
      </trkpt>
      <trkpt lat="44.86646" lon="3.56253">
        <ele>1090.7529296875</ele>
        <time>2019-08-18T08:28:33Z</time>
      </trkpt>
      <trkpt lat="44.86641" lon="3.56251">
        <ele>1089.7917480469</ele>
        <time>2019-08-18T08:28:34Z</time>
      </trkpt>
      <trkpt lat="44.8662" lon="3.56245">
        <ele>1089.3110351562</ele>
        <time>2019-08-18T08:28:38Z</time>
      </trkpt>
      <trkpt lat="44.86598" lon="3.5624">
        <ele>1088.3498535156</ele>
        <time>2019-08-18T08:28:48Z</time>
      </trkpt>
      <trkpt lat="44.8655" lon="3.56254">
        <ele>1087.3884277344</ele>
        <time>2019-08-18T08:28:59Z</time>
      </trkpt>
      <trkpt lat="44.86543" lon="3.56257">
        <ele>1087.869140625</ele>
        <time>2019-08-18T08:29:01Z</time>
      </trkpt>
      <trkpt lat="44.86542" lon="3.56257">
        <ele>1088.3498535156</ele>
        <time>2019-08-18T08:29:03Z</time>
      </trkpt>
      <trkpt lat="44.86542" lon="3.56257">
        <ele>1088.3498535156</ele>
        <time>2019-08-18T08:29:18Z</time>
      </trkpt>
      <trkpt lat="44.86522" lon="3.56249">
        <ele>1086.4272460938</ele>
        <time>2019-08-18T08:29:31Z</time>
      </trkpt>
      <trkpt lat="44.86514" lon="3.56245">
        <ele>1084.9853515625</ele>
        <time>2019-08-18T08:29:33Z</time>
      </trkpt>
      <trkpt lat="44.86506" lon="3.5622">
        <ele>1083.0622558594</ele>
        <time>2019-08-18T08:29:36Z</time>
      </trkpt>
      <trkpt lat="44.86498" lon="3.56198">
        <ele>1079.6977539062</ele>
        <time>2019-08-18T08:29:39Z</time>
      </trkpt>
      <trkpt lat="44.86483" lon="3.5618">
        <ele>1077.7751464844</ele>
        <time>2019-08-18T08:29:42Z</time>
      </trkpt>
      <trkpt lat="44.86475" lon="3.56174">
        <ele>1075.3718261719</ele>
        <time>2019-08-18T08:29:44Z</time>
      </trkpt>
      <trkpt lat="44.86471" lon="3.56171">
        <ele>1075.3718261719</ele>
        <time>2019-08-18T08:29:45Z</time>
      </trkpt>
      <trkpt lat="44.8646" lon="3.56163">
        <ele>1073.9299316406</ele>
        <time>2019-08-18T08:29:49Z</time>
      </trkpt>
      <trkpt lat="44.8646" lon="3.56163">
        <ele>1073.4494628906</ele>
        <time>2019-08-18T08:29:50Z</time>
      </trkpt>
      <trkpt lat="44.86426" lon="3.5619">
        <ele>1072.4880371094</ele>
        <time>2019-08-18T08:29:56Z</time>
      </trkpt>
      <trkpt lat="44.86421" lon="3.56202">
        <ele>1072.0073242188</ele>
        <time>2019-08-18T08:29:58Z</time>
      </trkpt>
      <trkpt lat="44.86412" lon="3.56225">
        <ele>1070.5654296875</ele>
        <time>2019-08-18T08:30:02Z</time>
      </trkpt>
      <trkpt lat="44.86381" lon="3.56299">
        <ele>1069.6042480469</ele>
        <time>2019-08-18T08:30:16Z</time>
      </trkpt>
      <trkpt lat="44.86362" lon="3.56354">
        <ele>1070.5654296875</ele>
        <time>2019-08-18T08:30:31Z</time>
      </trkpt>
      <trkpt lat="44.86362" lon="3.56372">
        <ele>1072.0073242188</ele>
        <time>2019-08-18T08:30:57Z</time>
      </trkpt>
      <trkpt lat="44.86362" lon="3.56373">
        <ele>1072.0073242188</ele>
        <time>2019-08-18T08:31:11Z</time>
      </trkpt>
      <trkpt lat="44.86362" lon="3.56373">
        <ele>1070.5654296875</ele>
        <time>2019-08-18T08:31:37Z</time>
      </trkpt>
      <trkpt lat="44.86362" lon="3.56373">
        <ele>1071.5266113281</ele>
        <time>2019-08-18T08:31:41Z</time>
      </trkpt>
      <trkpt lat="44.86362" lon="3.56373">
        <ele>1071.5266113281</ele>
        <time>2019-08-18T08:31:46Z</time>
      </trkpt>
      <trkpt lat="44.86268" lon="3.56333">
        <ele>1070.5654296875</ele>
        <time>2019-08-18T08:32:09Z</time>
      </trkpt>
      <trkpt lat="44.86266" lon="3.56336">
        <ele>1071.0461425781</ele>
        <time>2019-08-18T08:32:12Z</time>
      </trkpt>
      <trkpt lat="44.8625" lon="3.56355">
        <ele>1073.9299316406</ele>
        <time>2019-08-18T08:32:31Z</time>
      </trkpt>
      <trkpt lat="44.86224" lon="3.5634">
        <ele>1076.8139648438</ele>
        <time>2019-08-18T08:32:53Z</time>
      </trkpt>
      <trkpt lat="44.862" lon="3.56319">
        <ele>1079.2170410156</ele>
        <time>2019-08-18T08:33:13Z</time>
      </trkpt>
      <trkpt lat="44.86175" lon="3.56302">
        <ele>1080.6591796875</ele>
        <time>2019-08-18T08:33:29Z</time>
      </trkpt>
      <trkpt lat="44.8615" lon="3.56293">
        <ele>1082.5817871094</ele>
        <time>2019-08-18T08:33:45Z</time>
      </trkpt>
      <trkpt lat="44.86115" lon="3.5627">
        <ele>1085.4658203125</ele>
        <time>2019-08-18T08:34:11Z</time>
      </trkpt>
      <trkpt lat="44.86094" lon="3.56253">
        <ele>1087.3884277344</ele>
        <time>2019-08-18T08:34:28Z</time>
      </trkpt>
      <trkpt lat="44.86074" lon="3.56238">
        <ele>1090.7529296875</ele>
        <time>2019-08-18T08:34:47Z</time>
      </trkpt>
      <trkpt lat="44.86047" lon="3.56223">
        <ele>1094.1176757812</ele>
        <time>2019-08-18T08:35:12Z</time>
      </trkpt>
      <trkpt lat="44.86034" lon="3.56222">
        <ele>1096.0402832031</ele>
        <time>2019-08-18T08:35:24Z</time>
      </trkpt>
      <trkpt lat="44.86021" lon="3.56219">
        <ele>1098.9240722656</ele>
        <time>2019-08-18T08:35:37Z</time>
      </trkpt>
      <trkpt lat="44.86003" lon="3.56215">
        <ele>1102.76953125</ele>
        <time>2019-08-18T08:35:54Z</time>
      </trkpt>
      <trkpt lat="44.85988" lon="3.56213">
        <ele>1104.6921386719</ele>
        <time>2019-08-18T08:36:08Z</time>
      </trkpt>
      <trkpt lat="44.85982" lon="3.56212">
        <ele>1105.1728515625</ele>
        <time>2019-08-18T08:36:13Z</time>
      </trkpt>
      <trkpt lat="44.85966" lon="3.56209">
        <ele>1109.0180664062</ele>
        <time>2019-08-18T08:36:31Z</time>
      </trkpt>
      <trkpt lat="44.85952" lon="3.56207">
        <ele>1110.9406738281</ele>
        <time>2019-08-18T08:36:47Z</time>
      </trkpt>
      <trkpt lat="44.85934" lon="3.56208">
        <ele>1114.3051757812</ele>
        <time>2019-08-18T08:37:06Z</time>
      </trkpt>
      <trkpt lat="44.85913" lon="3.56207">
        <ele>1117.189453125</ele>
        <time>2019-08-18T08:37:24Z</time>
      </trkpt>
      <trkpt lat="44.85886" lon="3.56206">
        <ele>1120.0732421875</ele>
        <time>2019-08-18T08:37:47Z</time>
      </trkpt>
      <trkpt lat="44.85867" lon="3.56193">
        <ele>1122.4765625</ele>
        <time>2019-08-18T08:38:07Z</time>
      </trkpt>
      <trkpt lat="44.85853" lon="3.56181">
        <ele>1125.8410644531</ele>
        <time>2019-08-18T08:38:26Z</time>
      </trkpt>
      <trkpt lat="44.85852" lon="3.56181">
        <ele>1126.8024902344</ele>
        <time>2019-08-18T08:38:55Z</time>
      </trkpt>
      <trkpt lat="44.85847" lon="3.56176">
        <ele>1127.283203125</ele>
        <time>2019-08-18T08:39:08Z</time>
      </trkpt>
      <trkpt lat="44.85837" lon="3.56162">
        <ele>1130.6477050781</ele>
        <time>2019-08-18T08:39:29Z</time>
      </trkpt>
      <trkpt lat="44.85824" lon="3.56151">
        <ele>1134.4931640625</ele>
        <time>2019-08-18T08:39:50Z</time>
      </trkpt>
      <trkpt lat="44.85817" lon="3.56146">
        <ele>1135.9350585938</ele>
        <time>2019-08-18T08:40:02Z</time>
      </trkpt>
      <trkpt lat="44.85812" lon="3.56142">
        <ele>1136.8962402344</ele>
        <time>2019-08-18T08:40:13Z</time>
      </trkpt>
      <trkpt lat="44.85812" lon="3.56136">
        <ele>1137.376953125</ele>
        <time>2019-08-18T08:40:27Z</time>
      </trkpt>
      <trkpt lat="44.8581" lon="3.56134">
        <ele>1137.376953125</ele>
        <time>2019-08-18T08:40:30Z</time>
      </trkpt>
      <trkpt lat="44.85798" lon="3.56113">
        <ele>1141.2221679688</ele>
        <time>2019-08-18T08:40:46Z</time>
      </trkpt>
      <trkpt lat="44.85791" lon="3.56102">
        <ele>1143.1447753906</ele>
        <time>2019-08-18T08:40:54Z</time>
      </trkpt>
      <trkpt lat="44.85777" lon="3.56087">
        <ele>1146.5095214844</ele>
        <time>2019-08-18T08:41:11Z</time>
      </trkpt>
      <trkpt lat="44.85763" lon="3.56073">
        <ele>1148.4321289062</ele>
        <time>2019-08-18T08:41:34Z</time>
      </trkpt>
      <trkpt lat="44.8576" lon="3.56071">
        <ele>1149.3935546875</ele>
        <time>2019-08-18T08:45:59Z</time>
      </trkpt>
      <trkpt lat="44.85739" lon="3.56057">
        <ele>1150.3549804688</ele>
        <time>2019-08-18T08:46:15Z</time>
      </trkpt>
      <trkpt lat="44.85714" lon="3.56045">
        <ele>1152.7580566406</ele>
        <time>2019-08-18T08:46:34Z</time>
      </trkpt>
      <trkpt lat="44.85706" lon="3.56043">
        <ele>1154.6806640625</ele>
        <time>2019-08-18T08:46:39Z</time>
      </trkpt>
      <trkpt lat="44.85684" lon="3.5603">
        <ele>1157.5646972656</ele>
        <time>2019-08-18T08:46:57Z</time>
      </trkpt>
      <trkpt lat="44.85654" lon="3.56005">
        <ele>1160.4484863281</ele>
        <time>2019-08-18T08:47:20Z</time>
      </trkpt>
      <trkpt lat="44.85649" lon="3.56001">
        <ele>1160.9291992188</ele>
        <time>2019-08-18T08:47:23Z</time>
      </trkpt>
      <trkpt lat="44.85623" lon="3.55976">
        <ele>1164.7746582031</ele>
        <time>2019-08-18T08:47:44Z</time>
      </trkpt>
      <trkpt lat="44.85618" lon="3.5597">
        <ele>1165.2553710938</ele>
        <time>2019-08-18T08:47:49Z</time>
      </trkpt>
      <trkpt lat="44.85607" lon="3.55962">
        <ele>1166.2165527344</ele>
        <time>2019-08-18T08:47:58Z</time>
      </trkpt>
      <trkpt lat="44.85602" lon="3.5596">
        <ele>1166.697265625</ele>
        <time>2019-08-18T08:48:01Z</time>
      </trkpt>
      <trkpt lat="44.85595" lon="3.55956">
        <ele>1167.6584472656</ele>
        <time>2019-08-18T08:48:06Z</time>
      </trkpt>
      <trkpt lat="44.85569" lon="3.55946">
        <ele>1170.0617675781</ele>
        <time>2019-08-18T08:48:26Z</time>
      </trkpt>
      <trkpt lat="44.85542" lon="3.5593">
        <ele>1171.984375</ele>
        <time>2019-08-18T08:48:45Z</time>
      </trkpt>
      <trkpt lat="44.8554" lon="3.5593">
        <ele>1171.984375</ele>
        <time>2019-08-18T08:48:46Z</time>
      </trkpt>
      <trkpt lat="44.85536" lon="3.55928">
        <ele>1172.4650878906</ele>
        <time>2019-08-18T08:48:49Z</time>
      </trkpt>
      <trkpt lat="44.85511" lon="3.55922">
        <ele>1172.4650878906</ele>
        <time>2019-08-18T08:49:03Z</time>
      </trkpt>
      <trkpt lat="44.85472" lon="3.55894">
        <ele>1171.0231933594</ele>
        <time>2019-08-18T08:49:20Z</time>
      </trkpt>
      <trkpt lat="44.85441" lon="3.55879">
        <ele>1169.1005859375</ele>
        <time>2019-08-18T08:49:28Z</time>
      </trkpt>
      <trkpt lat="44.85424" lon="3.55869">
        <ele>1167.1779785156</ele>
        <time>2019-08-18T08:49:32Z</time>
      </trkpt>
      <trkpt lat="44.85414" lon="3.55862">
        <ele>1165.2553710938</ele>
        <time>2019-08-18T08:49:34Z</time>
      </trkpt>
      <trkpt lat="44.85394" lon="3.55846">
        <ele>1164.2939453125</ele>
        <time>2019-08-18T08:49:38Z</time>
      </trkpt>
      <trkpt lat="44.85367" lon="3.55808">
        <ele>1161.4099121094</ele>
        <time>2019-08-18T08:49:45Z</time>
      </trkpt>
      <trkpt lat="44.85354" lon="3.55789">
        <ele>1159.9677734375</ele>
        <time>2019-08-18T08:49:48Z</time>
      </trkpt>
      <trkpt lat="44.85344" lon="3.55774">
        <ele>1161.4099121094</ele>
        <time>2019-08-18T08:49:51Z</time>
      </trkpt>
      <trkpt lat="44.85323" lon="3.55733">
        <ele>1159.0065917969</ele>
        <time>2019-08-18T08:49:58Z</time>
      </trkpt>
      <trkpt lat="44.85315" lon="3.5572">
        <ele>1157.5646972656</ele>
        <time>2019-08-18T08:50:00Z</time>
      </trkpt>
      <trkpt lat="44.85284" lon="3.55671">
        <ele>1156.1225585938</ele>
        <time>2019-08-18T08:50:08Z</time>
      </trkpt>
      <trkpt lat="44.85264" lon="3.55654">
        <ele>1154.6806640625</ele>
        <time>2019-08-18T08:50:12Z</time>
      </trkpt>
      <trkpt lat="44.85223" lon="3.55615">
        <ele>1150.8354492188</ele>
        <time>2019-08-18T08:50:21Z</time>
      </trkpt>
      <trkpt lat="44.85217" lon="3.55611">
        <ele>1150.8354492188</ele>
        <time>2019-08-18T08:50:22Z</time>
      </trkpt>
      <trkpt lat="44.85161" lon="3.55554">
        <ele>1150.3549804688</ele>
        <time>2019-08-18T08:50:35Z</time>
      </trkpt>
      <trkpt lat="44.85133" lon="3.55524">
        <ele>1150.3549804688</ele>
        <time>2019-08-18T08:50:42Z</time>
      </trkpt>
      <trkpt lat="44.85106" lon="3.55511">
        <ele>1149.8742675781</ele>
        <time>2019-08-18T08:50:49Z</time>
      </trkpt>
      <trkpt lat="44.85079" lon="3.55501">
        <ele>1150.3549804688</ele>
        <time>2019-08-18T08:50:58Z</time>
      </trkpt>
      <trkpt lat="44.85076" lon="3.55493">
        <ele>1151.3161621094</ele>
        <time>2019-08-18T08:51:00Z</time>
      </trkpt>
      <trkpt lat="44.85077" lon="3.55449">
        <ele>1153.7194824219</ele>
        <time>2019-08-18T08:51:13Z</time>
      </trkpt>
      <trkpt lat="44.8506" lon="3.55394">
        <ele>1156.1225585938</ele>
        <time>2019-08-18T08:51:33Z</time>
      </trkpt>
      <trkpt lat="44.85041" lon="3.55338">
        <ele>1159.0065917969</ele>
        <time>2019-08-18T08:51:56Z</time>
      </trkpt>
      <trkpt lat="44.85036" lon="3.55328">
        <ele>1160.9291992188</ele>
        <time>2019-08-18T08:52:03Z</time>
      </trkpt>
      <trkpt lat="44.85021" lon="3.55289">
        <ele>1164.2939453125</ele>
        <time>2019-08-18T08:52:25Z</time>
      </trkpt>
      <trkpt lat="44.85006" lon="3.5525">
        <ele>1167.6584472656</ele>
        <time>2019-08-18T08:52:48Z</time>
      </trkpt>
      <trkpt lat="44.84991" lon="3.55214">
        <ele>1171.0231933594</ele>
        <time>2019-08-18T08:53:09Z</time>
      </trkpt>
      <trkpt lat="44.84974" lon="3.55178">
        <ele>1173.4265136719</ele>
        <time>2019-08-18T08:53:32Z</time>
      </trkpt>
      <trkpt lat="44.8496" lon="3.55143">
        <ele>1176.3103027344</ele>
        <time>2019-08-18T08:53:55Z</time>
      </trkpt>
      <trkpt lat="44.84943" lon="3.55114">
        <ele>1179.1940917969</ele>
        <time>2019-08-18T08:54:15Z</time>
      </trkpt>
      <trkpt lat="44.84926" lon="3.55073">
        <ele>1181.59765625</ele>
        <time>2019-08-18T08:54:35Z</time>
      </trkpt>
      <trkpt lat="44.84911" lon="3.5503">
        <ele>1182.5590820312</ele>
        <time>2019-08-18T08:54:52Z</time>
      </trkpt>
      <trkpt lat="44.84904" lon="3.54969">
        <ele>1183.5202636719</ele>
        <time>2019-08-18T08:55:13Z</time>
      </trkpt>
      <trkpt lat="44.84903" lon="3.54896">
        <ele>1182.0783691406</ele>
        <time>2019-08-18T08:55:34Z</time>
      </trkpt>
      <trkpt lat="44.84901" lon="3.54847">
        <ele>1185.4428710938</ele>
        <time>2019-08-18T08:55:48Z</time>
      </trkpt>
      <trkpt lat="44.84901" lon="3.54824">
        <ele>1187.3654785156</ele>
        <time>2019-08-18T08:55:56Z</time>
      </trkpt>
      <trkpt lat="44.84906" lon="3.54817">
        <ele>1186.884765625</ele>
        <time>2019-08-18T08:56:00Z</time>
      </trkpt>
      <trkpt lat="44.84909" lon="3.54815">
        <ele>1187.8461914062</ele>
        <time>2019-08-18T08:56:02Z</time>
      </trkpt>
      <trkpt lat="44.84921" lon="3.54821">
        <ele>1189.7687988281</ele>
        <time>2019-08-18T08:56:11Z</time>
      </trkpt>
      <trkpt lat="44.84944" lon="3.54839">
        <ele>1191.2106933594</ele>
        <time>2019-08-18T08:56:27Z</time>
      </trkpt>
      <trkpt lat="44.84969" lon="3.54822">
        <ele>1194.0947265625</ele>
        <time>2019-08-18T08:56:47Z</time>
      </trkpt>
      <trkpt lat="44.84971" lon="3.5481">
        <ele>1194.5751953125</ele>
        <time>2019-08-18T08:56:52Z</time>
      </trkpt>
      <trkpt lat="44.84977" lon="3.54813">
        <ele>1193.6140136719</ele>
        <time>2019-08-18T08:56:57Z</time>
      </trkpt>
      <trkpt lat="44.84986" lon="3.54809">
        <ele>1195.0559082031</ele>
        <time>2019-08-18T08:57:04Z</time>
      </trkpt>
      <trkpt lat="44.85009" lon="3.5477">
        <ele>1197.4594726562</ele>
        <time>2019-08-18T08:57:22Z</time>
      </trkpt>
      <trkpt lat="44.85029" lon="3.54749">
        <ele>1198.9013671875</ele>
        <time>2019-08-18T08:57:39Z</time>
      </trkpt>
      <trkpt lat="44.85033" lon="3.54763">
        <ele>1198.4206542969</ele>
        <time>2019-08-18T08:57:45Z</time>
      </trkpt>
      <trkpt lat="44.85034" lon="3.54782">
        <ele>1198.9013671875</ele>
        <time>2019-08-18T08:57:58Z</time>
      </trkpt>
      <trkpt lat="44.85036" lon="3.54775">
        <ele>1198.9013671875</ele>
        <time>2019-08-18T09:00:00Z</time>
      </trkpt>
      <trkpt lat="44.85036" lon="3.54769">
        <ele>1198.9013671875</ele>
        <time>2019-08-18T09:00:09Z</time>
      </trkpt>
      <trkpt lat="44.85035" lon="3.54766">
        <ele>1198.4206542969</ele>
        <time>2019-08-18T09:00:11Z</time>
      </trkpt>
      <trkpt lat="44.85034" lon="3.54755">
        <ele>1198.9013671875</ele>
        <time>2019-08-18T09:00:15Z</time>
      </trkpt>
      <trkpt lat="44.85031" lon="3.54748">
        <ele>1198.4206542969</ele>
        <time>2019-08-18T09:00:18Z</time>
      </trkpt>
      <trkpt lat="44.85031" lon="3.54737">
        <ele>1198.9013671875</ele>
        <time>2019-08-18T09:00:22Z</time>
      </trkpt>
      <trkpt lat="44.85032" lon="3.54728">
        <ele>1198.9013671875</ele>
        <time>2019-08-18T09:00:25Z</time>
      </trkpt>
      <trkpt lat="44.85054" lon="3.54692">
        <ele>1200.3435058594</ele>
        <time>2019-08-18T09:00:41Z</time>
      </trkpt>
      <trkpt lat="44.85086" lon="3.54648">
        <ele>1201.3046875</ele>
        <time>2019-08-18T09:00:58Z</time>
      </trkpt>
      <trkpt lat="44.85096" lon="3.54614">
        <ele>1198.4206542969</ele>
        <time>2019-08-18T09:01:05Z</time>
      </trkpt>
      <trkpt lat="44.85099" lon="3.54602">
        <ele>1196.9787597656</ele>
        <time>2019-08-18T09:01:07Z</time>
      </trkpt>
      <trkpt lat="44.85106" lon="3.54576">
        <ele>1193.1333007812</ele>
        <time>2019-08-18T09:01:11Z</time>
      </trkpt>
      <trkpt lat="44.85108" lon="3.54568">
        <ele>1193.1333007812</ele>
        <time>2019-08-18T09:01:12Z</time>
      </trkpt>
      <trkpt lat="44.85117" lon="3.54532">
        <ele>1190.2495117188</ele>
        <time>2019-08-18T09:01:16Z</time>
      </trkpt>
      <trkpt lat="44.85124" lon="3.54501">
        <ele>1188.3269042969</ele>
        <time>2019-08-18T09:01:19Z</time>
      </trkpt>
      <trkpt lat="44.85131" lon="3.5448">
        <ele>1187.3654785156</ele>
        <time>2019-08-18T09:01:21Z</time>
      </trkpt>
      <trkpt lat="44.85153" lon="3.54433">
        <ele>1185.9235839844</ele>
        <time>2019-08-18T09:01:26Z</time>
      </trkpt>
      <trkpt lat="44.85182" lon="3.54403">
        <ele>1185.4428710938</ele>
        <time>2019-08-18T09:01:31Z</time>
      </trkpt>
      <trkpt lat="44.85197" lon="3.54384">
        <ele>1186.884765625</ele>
        <time>2019-08-18T09:01:34Z</time>
      </trkpt>
      <trkpt lat="44.85232" lon="3.54327">
        <ele>1186.884765625</ele>
        <time>2019-08-18T09:01:44Z</time>
      </trkpt>
      <trkpt lat="44.85284" lon="3.54272">
        <ele>1189.2880859375</ele>
        <time>2019-08-18T09:02:02Z</time>
      </trkpt>
      <trkpt lat="44.85344" lon="3.54244">
        <ele>1192.1721191406</ele>
        <time>2019-08-18T09:02:23Z</time>
      </trkpt>
      <trkpt lat="44.85377" lon="3.54212">
        <ele>1195.5366210938</ele>
        <time>2019-08-18T09:02:38Z</time>
      </trkpt>
      <trkpt lat="44.85414" lon="3.54169">
        <ele>1196.017578125</ele>
        <time>2019-08-18T09:02:58Z</time>
      </trkpt>
      <trkpt lat="44.85445" lon="3.54134">
        <ele>1195.5366210938</ele>
        <time>2019-08-18T09:03:10Z</time>
      </trkpt>
      <trkpt lat="44.85456" lon="3.54125">
        <ele>1194.5751953125</ele>
        <time>2019-08-18T09:03:13Z</time>
      </trkpt>
      <trkpt lat="44.85473" lon="3.5412">
        <ele>1192.6528320312</ele>
        <time>2019-08-18T09:03:17Z</time>
      </trkpt>
      <trkpt lat="44.85487" lon="3.54119">
        <ele>1191.69140625</ele>
        <time>2019-08-18T09:03:21Z</time>
      </trkpt>
      <trkpt lat="44.85501" lon="3.54124">
        <ele>1190.2495117188</ele>
        <time>2019-08-18T09:03:24Z</time>
      </trkpt>
      <trkpt lat="44.85512" lon="3.54129">
        <ele>1189.2880859375</ele>
        <time>2019-08-18T09:03:26Z</time>
      </trkpt>
      <trkpt lat="44.85535" lon="3.5415">
        <ele>1187.8461914062</ele>
        <time>2019-08-18T09:03:31Z</time>
      </trkpt>
      <trkpt lat="44.85611" lon="3.54178">
        <ele>1187.3654785156</ele>
        <time>2019-08-18T09:03:48Z</time>
      </trkpt>
      <trkpt lat="44.85631" lon="3.54187">
        <ele>1187.3654785156</ele>
        <time>2019-08-18T09:03:54Z</time>
      </trkpt>
      <trkpt lat="44.85646" lon="3.54174">
        <ele>1186.404296875</ele>
        <time>2019-08-18T09:03:59Z</time>
      </trkpt>
      <trkpt lat="44.85662" lon="3.54131">
        <ele>1187.3654785156</ele>
        <time>2019-08-18T09:04:12Z</time>
      </trkpt>
      <trkpt lat="44.85663" lon="3.54128">
        <ele>1186.884765625</ele>
        <time>2019-08-18T09:04:25Z</time>
      </trkpt>
      <trkpt lat="44.8567" lon="3.54121">
        <ele>1186.404296875</ele>
        <time>2019-08-18T09:04:29Z</time>
      </trkpt>
      <trkpt lat="44.85702" lon="3.54076">
        <ele>1184.4816894531</ele>
        <time>2019-08-18T09:04:46Z</time>
      </trkpt>
      <trkpt lat="44.8572" lon="3.54053">
        <ele>1183.0395507812</ele>
        <time>2019-08-18T09:04:52Z</time>
      </trkpt>
      <trkpt lat="44.85727" lon="3.54044">
        <ele>1182.5590820312</ele>
        <time>2019-08-18T09:04:54Z</time>
      </trkpt>
      <trkpt lat="44.85752" lon="3.53976">
        <ele>1177.7521972656</ele>
        <time>2019-08-18T09:05:04Z</time>
      </trkpt>
      <trkpt lat="44.85762" lon="3.53952">
        <ele>1176.791015625</ele>
        <time>2019-08-18T09:05:07Z</time>
      </trkpt>
      <trkpt lat="44.85792" lon="3.53887">
        <ele>1174.8684082031</ele>
        <time>2019-08-18T09:05:16Z</time>
      </trkpt>
      <trkpt lat="44.8581" lon="3.53857">
        <ele>1171.5036621094</ele>
        <time>2019-08-18T09:05:21Z</time>
      </trkpt>
      <trkpt lat="44.85832" lon="3.5383">
        <ele>1170.0617675781</ele>
        <time>2019-08-18T09:05:26Z</time>
      </trkpt>
      <trkpt lat="44.85847" lon="3.5381">
        <ele>1167.1779785156</ele>
        <time>2019-08-18T09:05:29Z</time>
      </trkpt>
      <trkpt lat="44.85917" lon="3.53729">
        <ele>1164.2939453125</ele>
        <time>2019-08-18T09:05:41Z</time>
      </trkpt>
      <trkpt lat="44.85937" lon="3.53713">
        <ele>1162.8518066406</ele>
        <time>2019-08-18T09:05:44Z</time>
      </trkpt>
      <trkpt lat="44.85954" lon="3.53695">
        <ele>1162.8518066406</ele>
        <time>2019-08-18T09:05:47Z</time>
      </trkpt>
      <trkpt lat="44.85984" lon="3.53677">
        <ele>1161.4099121094</ele>
        <time>2019-08-18T09:05:52Z</time>
      </trkpt>
      <trkpt lat="44.85996" lon="3.53674">
        <ele>1159.9677734375</ele>
        <time>2019-08-18T09:05:54Z</time>
      </trkpt>
      <trkpt lat="44.86002" lon="3.53673">
        <ele>1159.4873046875</ele>
        <time>2019-08-18T09:05:55Z</time>
      </trkpt>
      <trkpt lat="44.8603" lon="3.5363">
        <ele>1157.5646972656</ele>
        <time>2019-08-18T09:06:03Z</time>
      </trkpt>
      <trkpt lat="44.8603" lon="3.53622">
        <ele>1157.5646972656</ele>
        <time>2019-08-18T09:06:04Z</time>
      </trkpt>
      <trkpt lat="44.8603" lon="3.53575">
        <ele>1155.1613769531</ele>
        <time>2019-08-18T09:06:10Z</time>
      </trkpt>
      <trkpt lat="44.86028" lon="3.53553">
        <ele>1153.7194824219</ele>
        <time>2019-08-18T09:06:13Z</time>
      </trkpt>
      <trkpt lat="44.86027" lon="3.53519">
        <ele>1150.8354492188</ele>
        <time>2019-08-18T09:06:17Z</time>
      </trkpt>
      <trkpt lat="44.86026" lon="3.53498">
        <ele>1146.9899902344</ele>
        <time>2019-08-18T09:06:19Z</time>
      </trkpt>
      <trkpt lat="44.86026" lon="3.53489">
        <ele>1146.9899902344</ele>
        <time>2019-08-18T09:06:20Z</time>
      </trkpt>
      <trkpt lat="44.86025" lon="3.53451">
        <ele>1144.1062011719</ele>
        <time>2019-08-18T09:06:24Z</time>
      </trkpt>
      <trkpt lat="44.86024" lon="3.53408">
        <ele>1141.7028808594</ele>
        <time>2019-08-18T09:06:29Z</time>
      </trkpt>
      <trkpt lat="44.86023" lon="3.53384">
        <ele>1139.7802734375</ele>
        <time>2019-08-18T09:06:32Z</time>
      </trkpt>
      <trkpt lat="44.8602" lon="3.53363">
        <ele>1135.4543457031</ele>
        <time>2019-08-18T09:06:35Z</time>
      </trkpt>
      <trkpt lat="44.86019" lon="3.53356">
        <ele>1135.4543457031</ele>
        <time>2019-08-18T09:06:36Z</time>
      </trkpt>
      <trkpt lat="44.86017" lon="3.53342">
        <ele>1137.376953125</ele>
        <time>2019-08-18T09:06:38Z</time>
      </trkpt>
      <trkpt lat="44.86016" lon="3.53334">
        <ele>1133.0510253906</ele>
        <time>2019-08-18T09:06:39Z</time>
      </trkpt>
      <trkpt lat="44.86011" lon="3.53315">
        <ele>1130.6477050781</ele>
        <time>2019-08-18T09:06:42Z</time>
      </trkpt>
      <trkpt lat="44.85993" lon="3.53287">
        <ele>1129.2055664062</ele>
        <time>2019-08-18T09:06:47Z</time>
      </trkpt>
      <trkpt lat="44.85982" lon="3.53269">
        <ele>1124.3991699219</ele>
        <time>2019-08-18T09:06:50Z</time>
      </trkpt>
      <trkpt lat="44.85979" lon="3.53263">
        <ele>1124.3991699219</ele>
        <time>2019-08-18T09:06:51Z</time>
      </trkpt>
      <trkpt lat="44.85965" lon="3.53229">
        <ele>1123.4379882812</ele>
        <time>2019-08-18T09:06:56Z</time>
      </trkpt>
      <trkpt lat="44.85954" lon="3.5321">
        <ele>1121.5151367188</ele>
        <time>2019-08-18T09:06:59Z</time>
      </trkpt>
      <trkpt lat="44.85944" lon="3.53197">
        <ele>1118.6313476562</ele>
        <time>2019-08-18T09:07:01Z</time>
      </trkpt>
      <trkpt lat="44.85926" lon="3.53177">
        <ele>1118.6313476562</ele>
        <time>2019-08-18T09:07:04Z</time>
      </trkpt>
      <trkpt lat="44.85898" lon="3.53132">
        <ele>1119.5927734375</ele>
        <time>2019-08-18T09:07:11Z</time>
      </trkpt>
      <trkpt lat="44.85864" lon="3.53104">
        <ele>1120.5539550781</ele>
        <time>2019-08-18T09:07:20Z</time>
      </trkpt>
      <trkpt lat="44.85833" lon="3.53081">
        <ele>1120.0732421875</ele>
        <time>2019-08-18T09:07:28Z</time>
      </trkpt>
      <trkpt lat="44.85821" lon="3.53075">
        <ele>1119.5927734375</ele>
        <time>2019-08-18T09:07:31Z</time>
      </trkpt>
      <trkpt lat="44.85809" lon="3.53069">
        <ele>1119.5927734375</ele>
        <time>2019-08-18T09:07:34Z</time>
      </trkpt>
      <trkpt lat="44.85782" lon="3.53056">
        <ele>1121.0346679688</ele>
        <time>2019-08-18T09:07:41Z</time>
      </trkpt>
      <trkpt lat="44.8576" lon="3.53046">
        <ele>1121.9958496094</ele>
        <time>2019-08-18T09:07:52Z</time>
      </trkpt>
      <trkpt lat="44.85759" lon="3.53045">
        <ele>1121.9958496094</ele>
        <time>2019-08-18T09:07:55Z</time>
      </trkpt>
      <trkpt lat="44.85724" lon="3.53025">
        <ele>1121.9958496094</ele>
        <time>2019-08-18T09:08:10Z</time>
      </trkpt>
      <trkpt lat="44.85716" lon="3.53018">
        <ele>1120.5539550781</ele>
        <time>2019-08-18T09:08:13Z</time>
      </trkpt>
      <trkpt lat="44.85639" lon="3.52975">
        <ele>1119.1120605469</ele>
        <time>2019-08-18T09:08:35Z</time>
      </trkpt>
      <trkpt lat="44.85636" lon="3.52974">
        <ele>1119.1120605469</ele>
        <time>2019-08-18T09:08:36Z</time>
      </trkpt>
      <trkpt lat="44.85594" lon="3.52947">
        <ele>1121.5151367188</ele>
        <time>2019-08-18T09:08:51Z</time>
      </trkpt>
      <trkpt lat="44.85566" lon="3.52919">
        <ele>1121.0346679688</ele>
        <time>2019-08-18T09:09:04Z</time>
      </trkpt>
      <trkpt lat="44.85515" lon="3.52881">
        <ele>1122.4765625</ele>
        <time>2019-08-18T09:09:25Z</time>
      </trkpt>
      <trkpt lat="44.85483" lon="3.52853">
        <ele>1126.3217773438</ele>
        <time>2019-08-18T09:09:40Z</time>
      </trkpt>
      <trkpt lat="44.85482" lon="3.5285">
        <ele>1126.3217773438</ele>
        <time>2019-08-18T09:09:41Z</time>
      </trkpt>
      <trkpt lat="44.85483" lon="3.52808">
        <ele>1129.6862792969</ele>
        <time>2019-08-18T09:09:58Z</time>
      </trkpt>
      <trkpt lat="44.85483" lon="3.52785">
        <ele>1131.6088867188</ele>
        <time>2019-08-18T09:10:10Z</time>
      </trkpt>
      <trkpt lat="44.85481" lon="3.52762">
        <ele>1134.9738769531</ele>
        <time>2019-08-18T09:10:22Z</time>
      </trkpt>
      <trkpt lat="44.85481" lon="3.52761">
        <ele>1134.9738769531</ele>
        <time>2019-08-18T09:10:23Z</time>
      </trkpt>
      <trkpt lat="44.85481" lon="3.52759">
        <ele>1134.9738769531</ele>
        <time>2019-08-18T09:10:24Z</time>
      </trkpt>
      <trkpt lat="44.85478" lon="3.52753">
        <ele>1135.4543457031</ele>
        <time>2019-08-18T09:10:28Z</time>
      </trkpt>
      <trkpt lat="44.85479" lon="3.52745">
        <ele>1135.4543457031</ele>
        <time>2019-08-18T09:10:32Z</time>
      </trkpt>
      <trkpt lat="44.85477" lon="3.52739">
        <ele>1136.8962402344</ele>
        <time>2019-08-18T09:10:37Z</time>
      </trkpt>
      <trkpt lat="44.85478" lon="3.52732">
        <ele>1137.376953125</ele>
        <time>2019-08-18T09:10:41Z</time>
      </trkpt>
      <trkpt lat="44.85478" lon="3.52727">
        <ele>1137.376953125</ele>
        <time>2019-08-18T09:10:44Z</time>
      </trkpt>
      <trkpt lat="44.85476" lon="3.52718">
        <ele>1138.8190917969</ele>
        <time>2019-08-18T09:10:51Z</time>
      </trkpt>
      <trkpt lat="44.85477" lon="3.52695">
        <ele>1141.7028808594</ele>
        <time>2019-08-18T09:11:06Z</time>
      </trkpt>
      <trkpt lat="44.85479" lon="3.52661">
        <ele>1143.6254882812</ele>
        <time>2019-08-18T09:11:23Z</time>
      </trkpt>
      <trkpt lat="44.85482" lon="3.52625">
        <ele>1145.5480957031</ele>
        <time>2019-08-18T09:11:39Z</time>
      </trkpt>
      <trkpt lat="44.85483" lon="3.52589">
        <ele>1148.9128417969</ele>
        <time>2019-08-18T09:11:56Z</time>
      </trkpt>
      <trkpt lat="44.85482" lon="3.52581">
        <ele>1148.4321289062</ele>
        <time>2019-08-18T09:12:00Z</time>
      </trkpt>
      <trkpt lat="44.85483" lon="3.52574">
        <ele>1149.3935546875</ele>
        <time>2019-08-18T09:12:04Z</time>
      </trkpt>
      <trkpt lat="44.85482" lon="3.5256">
        <ele>1150.3549804688</ele>
        <time>2019-08-18T09:12:12Z</time>
      </trkpt>
      <trkpt lat="44.85481" lon="3.52555">
        <ele>1151.3161621094</ele>
        <time>2019-08-18T09:12:15Z</time>
      </trkpt>
      <trkpt lat="44.85478" lon="3.52524">
        <ele>1153.2387695312</ele>
        <time>2019-08-18T09:12:31Z</time>
      </trkpt>
      <trkpt lat="44.85478" lon="3.5252">
        <ele>1153.2387695312</ele>
        <time>2019-08-18T09:12:33Z</time>
      </trkpt>
      <trkpt lat="44.85477" lon="3.52513">
        <ele>1153.2387695312</ele>
        <time>2019-08-18T09:12:37Z</time>
      </trkpt>
      <trkpt lat="44.85464" lon="3.52457">
        <ele>1155.1613769531</ele>
        <time>2019-08-18T09:13:01Z</time>
      </trkpt>
      <trkpt lat="44.85457" lon="3.52435">
        <ele>1155.6420898438</ele>
        <time>2019-08-18T09:13:10Z</time>
      </trkpt>
      <trkpt lat="44.85455" lon="3.52428">
        <ele>1156.6032714844</ele>
        <time>2019-08-18T09:13:13Z</time>
      </trkpt>
      <trkpt lat="44.85458" lon="3.52415">
        <ele>1157.083984375</ele>
        <time>2019-08-18T09:13:18Z</time>
      </trkpt>
      <trkpt lat="44.85461" lon="3.5241">
        <ele>1157.5646972656</ele>
        <time>2019-08-18T09:13:21Z</time>
      </trkpt>
      <trkpt lat="44.85468" lon="3.52403">
        <ele>1158.5258789062</ele>
        <time>2019-08-18T09:13:26Z</time>
      </trkpt>
      <trkpt lat="44.85472" lon="3.52401">
        <ele>1158.0454101562</ele>
        <time>2019-08-18T09:13:28Z</time>
      </trkpt>
      <trkpt lat="44.85483" lon="3.52403">
        <ele>1159.4873046875</ele>
        <time>2019-08-18T09:13:35Z</time>
      </trkpt>
      <trkpt lat="44.85484" lon="3.52403">
        <ele>1159.9677734375</ele>
        <time>2019-08-18T09:13:37Z</time>
      </trkpt>
      <trkpt lat="44.85494" lon="3.52404">
        <ele>1161.4099121094</ele>
        <time>2019-08-18T09:13:45Z</time>
      </trkpt>
      <trkpt lat="44.85496" lon="3.52403">
        <ele>1161.4099121094</ele>
        <time>2019-08-18T09:13:47Z</time>
      </trkpt>
      <trkpt lat="44.855" lon="3.52405">
        <ele>1161.890625</ele>
        <time>2019-08-18T09:13:50Z</time>
      </trkpt>
      <trkpt lat="44.85504" lon="3.52407">
        <ele>1162.37109375</ele>
        <time>2019-08-18T09:13:53Z</time>
      </trkpt>
      <trkpt lat="44.8552" lon="3.52419">
        <ele>1164.2939453125</ele>
        <time>2019-08-18T09:14:06Z</time>
      </trkpt>
      <trkpt lat="44.85525" lon="3.52421">
        <ele>1164.2939453125</ele>
        <time>2019-08-18T09:14:10Z</time>
      </trkpt>
      <trkpt lat="44.85526" lon="3.52422">
        <ele>1164.7746582031</ele>
        <time>2019-08-18T09:14:12Z</time>
      </trkpt>
      <trkpt lat="44.8553" lon="3.52424">
        <ele>1165.2553710938</ele>
        <time>2019-08-18T09:14:29Z</time>
      </trkpt>
      <trkpt lat="44.8553" lon="3.52421">
        <ele>1165.2553710938</ele>
        <time>2019-08-18T09:15:09Z</time>
      </trkpt>
      <trkpt lat="44.8553" lon="3.52422">
        <ele>1164.7746582031</ele>
        <time>2019-08-18T09:15:38Z</time>
      </trkpt>
      <trkpt lat="44.8553" lon="3.52421">
        <ele>1164.2939453125</ele>
        <time>2019-08-18T09:15:57Z</time>
      </trkpt>
      <trkpt lat="44.8553" lon="3.52423">
        <ele>1164.2939453125</ele>
        <time>2019-08-18T09:16:32Z</time>
      </trkpt>
      <trkpt lat="44.8553" lon="3.52423">
        <ele>1164.2939453125</ele>
        <time>2019-08-18T09:16:46Z</time>
      </trkpt>
      <trkpt lat="44.85538" lon="3.5243">
        <ele>1164.7746582031</ele>
        <time>2019-08-18T09:16:56Z</time>
      </trkpt>
      <trkpt lat="44.85539" lon="3.5243">
        <ele>1165.2553710938</ele>
        <time>2019-08-18T09:16:57Z</time>
      </trkpt>
      <trkpt lat="44.85544" lon="3.52434">
        <ele>1164.7746582031</ele>
        <time>2019-08-18T09:17:02Z</time>
      </trkpt>
      <trkpt lat="44.85551" lon="3.52436">
        <ele>1166.697265625</ele>
        <time>2019-08-18T09:17:07Z</time>
      </trkpt>
      <trkpt lat="44.85565" lon="3.52452">
        <ele>1170.0617675781</ele>
        <time>2019-08-18T09:17:18Z</time>
      </trkpt>
      <trkpt lat="44.85579" lon="3.52476">
        <ele>1171.0231933594</ele>
        <time>2019-08-18T09:17:30Z</time>
      </trkpt>
      <trkpt lat="44.85583" lon="3.52482">
        <ele>1171.5036621094</ele>
        <time>2019-08-18T09:17:34Z</time>
      </trkpt>
      <trkpt lat="44.85587" lon="3.52486">
        <ele>1172.4650878906</ele>
        <time>2019-08-18T09:17:38Z</time>
      </trkpt>
      <trkpt lat="44.85591" lon="3.52486">
        <ele>1173.4265136719</ele>
        <time>2019-08-18T09:17:41Z</time>
      </trkpt>
      <trkpt lat="44.85603" lon="3.52491">
        <ele>1175.3488769531</ele>
        <time>2019-08-18T09:17:50Z</time>
      </trkpt>
      <trkpt lat="44.85609" lon="3.52492">
        <ele>1177.7521972656</ele>
        <time>2019-08-18T09:17:55Z</time>
      </trkpt>
      <trkpt lat="44.85621" lon="3.52491">
        <ele>1177.7521972656</ele>
        <time>2019-08-18T09:18:04Z</time>
      </trkpt>
      <trkpt lat="44.85646" lon="3.52482">
        <ele>1180.1557617188</ele>
        <time>2019-08-18T09:18:22Z</time>
      </trkpt>
      <trkpt lat="44.8565" lon="3.52476">
        <ele>1181.59765625</ele>
        <time>2019-08-18T09:18:26Z</time>
      </trkpt>
      <trkpt lat="44.85649" lon="3.52468">
        <ele>1181.59765625</ele>
        <time>2019-08-18T09:18:31Z</time>
      </trkpt>
      <trkpt lat="44.8564" lon="3.52459">
        <ele>1181.1171875</ele>
        <time>2019-08-18T09:18:40Z</time>
      </trkpt>
      <trkpt lat="44.85637" lon="3.52457">
        <ele>1181.1171875</ele>
        <time>2019-08-18T09:18:42Z</time>
      </trkpt>
      <trkpt lat="44.85636" lon="3.52454">
        <ele>1182.5590820312</ele>
        <time>2019-08-18T09:18:44Z</time>
      </trkpt>
      <trkpt lat="44.8563" lon="3.52446">
        <ele>1182.5590820312</ele>
        <time>2019-08-18T09:18:50Z</time>
      </trkpt>
      <trkpt lat="44.85619" lon="3.52429">
        <ele>1184.4816894531</ele>
        <time>2019-08-18T09:19:01Z</time>
      </trkpt>
      <trkpt lat="44.85611" lon="3.52417">
        <ele>1185.9235839844</ele>
        <time>2019-08-18T09:19:09Z</time>
      </trkpt>
      <trkpt lat="44.85603" lon="3.52398">
        <ele>1187.8461914062</ele>
        <time>2019-08-18T09:19:20Z</time>
      </trkpt>
      <trkpt lat="44.85597" lon="3.52383">
        <ele>1189.2880859375</ele>
        <time>2019-08-18T09:19:29Z</time>
      </trkpt>
      <trkpt lat="44.85595" lon="3.52377">
        <ele>1188.8076171875</ele>
        <time>2019-08-18T09:19:32Z</time>
      </trkpt>
      <trkpt lat="44.85586" lon="3.52342">
        <ele>1191.69140625</ele>
        <time>2019-08-18T09:19:51Z</time>
      </trkpt>
      <trkpt lat="44.85581" lon="3.52311">
        <ele>1194.5751953125</ele>
        <time>2019-08-18T09:20:05Z</time>
      </trkpt>
      <trkpt lat="44.85581" lon="3.52309">
        <ele>1194.5751953125</ele>
        <time>2019-08-18T09:20:06Z</time>
      </trkpt>
      <trkpt lat="44.85578" lon="3.52294">
        <ele>1193.6140136719</ele>
        <time>2019-08-18T09:20:13Z</time>
      </trkpt>
      <trkpt lat="44.85571" lon="3.52246">
        <ele>1196.9787597656</ele>
        <time>2019-08-18T09:20:34Z</time>
      </trkpt>
      <trkpt lat="44.85569" lon="3.52236">
        <ele>1198.4206542969</ele>
        <time>2019-08-18T09:20:38Z</time>
      </trkpt>
      <trkpt lat="44.85565" lon="3.52203">
        <ele>1199.8627929688</ele>
        <time>2019-08-18T09:20:51Z</time>
      </trkpt>
      <trkpt lat="44.85571" lon="3.52174">
        <ele>1202.2658691406</ele>
        <time>2019-08-18T09:21:03Z</time>
      </trkpt>
      <trkpt lat="44.85584" lon="3.52156">
        <ele>1203.7080078125</ele>
        <time>2019-08-18T09:21:15Z</time>
      </trkpt>
      <trkpt lat="44.85586" lon="3.52151">
        <ele>1204.1887207031</ele>
        <time>2019-08-18T09:21:18Z</time>
      </trkpt>
      <trkpt lat="44.85604" lon="3.52132">
        <ele>1206.591796875</ele>
        <time>2019-08-18T09:21:33Z</time>
      </trkpt>
      <trkpt lat="44.85614" lon="3.52126">
        <ele>1207.5532226562</ele>
        <time>2019-08-18T09:21:39Z</time>
      </trkpt>
      <trkpt lat="44.85629" lon="3.52116">
        <ele>1209.4758300781</ele>
        <time>2019-08-18T09:21:49Z</time>
      </trkpt>
      <trkpt lat="44.85647" lon="3.52105">
        <ele>1211.3984375</ele>
        <time>2019-08-18T09:22:01Z</time>
      </trkpt>
      <trkpt lat="44.85664" lon="3.52099">
        <ele>1212.8405761719</ele>
        <time>2019-08-18T09:22:12Z</time>
      </trkpt>
      <trkpt lat="44.85673" lon="3.52089">
        <ele>1213.3212890625</ele>
        <time>2019-08-18T09:22:19Z</time>
      </trkpt>
      <trkpt lat="44.85705" lon="3.52059">
        <ele>1214.2824707031</ele>
        <time>2019-08-18T09:22:41Z</time>
      </trkpt>
      <trkpt lat="44.8572" lon="3.52012">
        <ele>1216.205078125</ele>
        <time>2019-08-18T09:23:00Z</time>
      </trkpt>
      <trkpt lat="44.8573" lon="3.5197">
        <ele>1217.6469726562</ele>
        <time>2019-08-18T09:23:16Z</time>
      </trkpt>
      <trkpt lat="44.85743" lon="3.51908">
        <ele>1219.5698242188</ele>
        <time>2019-08-18T09:23:38Z</time>
      </trkpt>
      <trkpt lat="44.85765" lon="3.51859">
        <ele>1222.9343261719</ele>
        <time>2019-08-18T09:23:57Z</time>
      </trkpt>
      <trkpt lat="44.85795" lon="3.51811">
        <ele>1224.3762207031</ele>
        <time>2019-08-18T09:24:17Z</time>
      </trkpt>
      <trkpt lat="44.85816" lon="3.51775">
        <ele>1224.8569335938</ele>
        <time>2019-08-18T09:24:32Z</time>
      </trkpt>
      <trkpt lat="44.85831" lon="3.51711">
        <ele>1227.2602539062</ele>
        <time>2019-08-18T09:24:52Z</time>
      </trkpt>
      <trkpt lat="44.85838" lon="3.51655">
        <ele>1230.1442871094</ele>
        <time>2019-08-18T09:25:11Z</time>
      </trkpt>
      <trkpt lat="44.85841" lon="3.51623">
        <ele>1231.5861816406</ele>
        <time>2019-08-18T09:25:22Z</time>
      </trkpt>
      <trkpt lat="44.85841" lon="3.51618">
        <ele>1231.5861816406</ele>
        <time>2019-08-18T09:25:24Z</time>
      </trkpt>
      <trkpt lat="44.85842" lon="3.51604">
        <ele>1232.0668945312</ele>
        <time>2019-08-18T09:25:29Z</time>
      </trkpt>
      <trkpt lat="44.85846" lon="3.51558">
        <ele>1234.4702148438</ele>
        <time>2019-08-18T09:25:47Z</time>
      </trkpt>
      <trkpt lat="44.85839" lon="3.5152">
        <ele>1237.8347167969</ele>
        <time>2019-08-18T09:26:02Z</time>
      </trkpt>
      <trkpt lat="44.85845" lon="3.51475">
        <ele>1236.8732910156</ele>
        <time>2019-08-18T09:26:21Z</time>
      </trkpt>
      <trkpt lat="44.85852" lon="3.51437">
        <ele>1240.2380371094</ele>
        <time>2019-08-18T09:26:36Z</time>
      </trkpt>
      <trkpt lat="44.85861" lon="3.51409">
        <ele>1239.7573242188</ele>
        <time>2019-08-18T09:26:47Z</time>
      </trkpt>
      <trkpt lat="44.85866" lon="3.51385">
        <ele>1239.7573242188</ele>
        <time>2019-08-18T09:26:56Z</time>
      </trkpt>
      <trkpt lat="44.85876" lon="3.51346">
        <ele>1241.19921875</ele>
        <time>2019-08-18T09:27:13Z</time>
      </trkpt>
      <trkpt lat="44.85895" lon="3.51299">
        <ele>1243.1218261719</ele>
        <time>2019-08-18T09:27:34Z</time>
      </trkpt>
      <trkpt lat="44.85917" lon="3.51255">
        <ele>1245.0446777344</ele>
        <time>2019-08-18T09:27:55Z</time>
      </trkpt>
      <trkpt lat="44.85946" lon="3.51214">
        <ele>1247.4479980469</ele>
        <time>2019-08-18T09:28:16Z</time>
      </trkpt>
      <trkpt lat="44.85981" lon="3.51191">
        <ele>1249.8513183594</ele>
        <time>2019-08-18T09:28:35Z</time>
      </trkpt>
      <trkpt lat="44.85991" lon="3.51185">
        <ele>1249.3706054688</ele>
        <time>2019-08-18T09:28:41Z</time>
      </trkpt>
      <trkpt lat="44.85997" lon="3.51181">
        <ele>1249.8513183594</ele>
        <time>2019-08-18T09:28:44Z</time>
      </trkpt>
      <trkpt lat="44.86029" lon="3.51164">
        <ele>1250.8125</ele>
        <time>2019-08-18T09:28:59Z</time>
      </trkpt>
      <trkpt lat="44.86063" lon="3.51149">
        <ele>1250.8125</ele>
        <time>2019-08-18T09:29:14Z</time>
      </trkpt>
      <trkpt lat="44.8611" lon="3.51125">
        <ele>1249.8513183594</ele>
        <time>2019-08-18T09:29:31Z</time>
      </trkpt>
      <trkpt lat="44.86144" lon="3.51095">
        <ele>1249.8513183594</ele>
        <time>2019-08-18T09:29:43Z</time>
      </trkpt>
      <trkpt lat="44.86186" lon="3.51061">
        <ele>1249.8513183594</ele>
        <time>2019-08-18T09:29:57Z</time>
      </trkpt>
      <trkpt lat="44.86234" lon="3.51018">
        <ele>1248.8898925781</ele>
        <time>2019-08-18T09:30:11Z</time>
      </trkpt>
      <trkpt lat="44.86281" lon="3.50971">
        <ele>1249.3706054688</ele>
        <time>2019-08-18T09:30:29Z</time>
      </trkpt>
      <trkpt lat="44.86318" lon="3.50904">
        <ele>1249.8513183594</ele>
        <time>2019-08-18T09:30:47Z</time>
      </trkpt>
      <trkpt lat="44.86348" lon="3.50839">
        <ele>1249.8513183594</ele>
        <time>2019-08-18T09:31:04Z</time>
      </trkpt>
      <trkpt lat="44.86359" lon="3.50801">
        <ele>1249.8513183594</ele>
        <time>2019-08-18T09:31:11Z</time>
      </trkpt>
      <trkpt lat="44.86393" lon="3.5073">
        <ele>1250.33203125</ele>
        <time>2019-08-18T09:31:27Z</time>
      </trkpt>
      <trkpt lat="44.86433" lon="3.50682">
        <ele>1246.4868164062</ele>
        <time>2019-08-18T09:31:38Z</time>
      </trkpt>
      <trkpt lat="44.86438" lon="3.50678">
        <ele>1246.4868164062</ele>
        <time>2019-08-18T09:31:39Z</time>
      </trkpt>
      <trkpt lat="44.86466" lon="3.50663">
        <ele>1245.0446777344</ele>
        <time>2019-08-18T09:31:44Z</time>
      </trkpt>
      <trkpt lat="44.86477" lon="3.50662">
        <ele>1244.5639648438</ele>
        <time>2019-08-18T09:31:46Z</time>
      </trkpt>
      <trkpt lat="44.86488" lon="3.50662">
        <ele>1243.6025390625</ele>
        <time>2019-08-18T09:31:48Z</time>
      </trkpt>
      <trkpt lat="44.86522" lon="3.50669">
        <ele>1240.2380371094</ele>
        <time>2019-08-18T09:31:53Z</time>
      </trkpt>
      <trkpt lat="44.86535" lon="3.50671">
        <ele>1239.7573242188</ele>
        <time>2019-08-18T09:31:55Z</time>
      </trkpt>
      <trkpt lat="44.86584" lon="3.5067">
        <ele>1237.3540039062</ele>
        <time>2019-08-18T09:32:02Z</time>
      </trkpt>
      <trkpt lat="44.86638" lon="3.50678">
        <ele>1234.9509277344</ele>
        <time>2019-08-18T09:32:11Z</time>
      </trkpt>
      <trkpt lat="44.86673" lon="3.50691">
        <ele>1232.5476074219</ele>
        <time>2019-08-18T09:32:17Z</time>
      </trkpt>
      <trkpt lat="44.86718" lon="3.50717">
        <ele>1228.7023925781</ele>
        <time>2019-08-18T09:32:26Z</time>
      </trkpt>
      <trkpt lat="44.8677" lon="3.50749">
        <ele>1226.298828125</ele>
        <time>2019-08-18T09:32:40Z</time>
      </trkpt>
      <trkpt lat="44.86778" lon="3.50759">
        <ele>1225.8181152344</ele>
        <time>2019-08-18T09:32:52Z</time>
      </trkpt>
      <trkpt lat="44.86794" lon="3.50786">
        <ele>1224.3762207031</ele>
        <time>2019-08-18T09:33:08Z</time>
      </trkpt>
      <trkpt lat="44.86813" lon="3.50825">
        <ele>1222.4536132812</ele>
        <time>2019-08-18T09:33:21Z</time>
      </trkpt>
      <trkpt lat="44.86821" lon="3.50847">
        <ele>1220.0502929688</ele>
        <time>2019-08-18T09:33:25Z</time>
      </trkpt>
      <trkpt lat="44.8685" lon="3.50913">
        <ele>1217.6469726562</ele>
        <time>2019-08-18T09:33:39Z</time>
      </trkpt>
      <trkpt lat="44.86878" lon="3.5095">
        <ele>1214.2824707031</ele>
        <time>2019-08-18T09:33:52Z</time>
      </trkpt>
      <trkpt lat="44.869" lon="3.5096">
        <ele>1210.9177246094</ele>
        <time>2019-08-18T09:33:59Z</time>
      </trkpt>
      <trkpt lat="44.86903" lon="3.50962">
        <ele>1211.3984375</ele>
        <time>2019-08-18T09:34:00Z</time>
      </trkpt>
      <trkpt lat="44.86924" lon="3.50971">
        <ele>1208.9951171875</ele>
        <time>2019-08-18T09:34:04Z</time>
      </trkpt>
      <trkpt lat="44.86936" lon="3.50976">
        <ele>1207.0725097656</ele>
        <time>2019-08-18T09:34:06Z</time>
      </trkpt>
      <trkpt lat="44.86996" lon="3.50983">
        <ele>1204.1887207031</ele>
        <time>2019-08-18T09:34:20Z</time>
      </trkpt>
      <trkpt lat="44.8702" lon="3.50977">
        <ele>1200.8239746094</ele>
        <time>2019-08-18T09:34:27Z</time>
      </trkpt>
      <trkpt lat="44.8705" lon="3.50959">
        <ele>1197.9401855469</ele>
        <time>2019-08-18T09:34:38Z</time>
      </trkpt>
      <trkpt lat="44.87058" lon="3.50956">
        <ele>1197.9401855469</ele>
        <time>2019-08-18T09:35:00Z</time>
      </trkpt>
      <trkpt lat="44.8706" lon="3.50957">
        <ele>1199.3820800781</ele>
        <time>2019-08-18T09:35:31Z</time>
      </trkpt>
      <trkpt lat="44.8706" lon="3.50957">
        <ele>1199.3820800781</ele>
        <time>2019-08-18T09:35:32Z</time>
      </trkpt>
      <trkpt lat="44.87055" lon="3.50953">
        <ele>1198.4206542969</ele>
        <time>2019-08-18T09:35:36Z</time>
      </trkpt>
      <trkpt lat="44.87041" lon="3.50934">
        <ele>1196.017578125</ele>
        <time>2019-08-18T09:35:42Z</time>
      </trkpt>
      <trkpt lat="44.87033" lon="3.50924">
        <ele>1194.5751953125</ele>
        <time>2019-08-18T09:35:44Z</time>
      </trkpt>
      <trkpt lat="44.87001" lon="3.50836">
        <ele>1191.69140625</ele>
        <time>2019-08-18T09:35:57Z</time>
      </trkpt>
      <trkpt lat="44.8698" lon="3.50772">
        <ele>1189.2880859375</ele>
        <time>2019-08-18T09:36:05Z</time>
      </trkpt>
      <trkpt lat="44.86949" lon="3.50681">
        <ele>1190.7299804688</ele>
        <time>2019-08-18T09:36:19Z</time>
      </trkpt>
      <trkpt lat="44.86932" lon="3.50618">
        <ele>1192.6528320312</ele>
        <time>2019-08-18T09:36:35Z</time>
      </trkpt>
      <trkpt lat="44.86908" lon="3.50558">
        <ele>1194.5751953125</ele>
        <time>2019-08-18T09:36:51Z</time>
      </trkpt>
      <trkpt lat="44.86907" lon="3.50555">
        <ele>1195.0559082031</ele>
        <time>2019-08-18T09:36:58Z</time>
      </trkpt>
      <trkpt lat="44.869" lon="3.50539">
        <ele>1195.0559082031</ele>
        <time>2019-08-18T09:37:05Z</time>
      </trkpt>
      <trkpt lat="44.86882" lon="3.5049">
        <ele>1196.017578125</ele>
        <time>2019-08-18T09:37:21Z</time>
      </trkpt>
      <trkpt lat="44.86887" lon="3.50481">
        <ele>1196.4982910156</ele>
        <time>2019-08-18T09:37:26Z</time>
      </trkpt>
      <trkpt lat="44.86909" lon="3.50456">
        <ele>1195.5366210938</ele>
        <time>2019-08-18T09:37:42Z</time>
      </trkpt>
      <trkpt lat="44.86931" lon="3.50446">
        <ele>1195.5366210938</ele>
        <time>2019-08-18T09:37:55Z</time>
      </trkpt>
      <trkpt lat="44.86991" lon="3.50453">
        <ele>1194.0947265625</ele>
        <time>2019-08-18T09:38:11Z</time>
      </trkpt>
      <trkpt lat="44.87048" lon="3.50441">
        <ele>1192.6528320312</ele>
        <time>2019-08-18T09:38:24Z</time>
      </trkpt>
      <trkpt lat="44.87081" lon="3.50422">
        <ele>1190.7299804688</ele>
        <time>2019-08-18T09:38:31Z</time>
      </trkpt>
      <trkpt lat="44.87104" lon="3.50409">
        <ele>1189.2880859375</ele>
        <time>2019-08-18T09:38:35Z</time>
      </trkpt>
      <trkpt lat="44.87124" lon="3.50401">
        <ele>1186.404296875</ele>
        <time>2019-08-18T09:38:38Z</time>
      </trkpt>
      <trkpt lat="44.87152" lon="3.50393">
        <ele>1184.0009765625</ele>
        <time>2019-08-18T09:38:42Z</time>
      </trkpt>
      <trkpt lat="44.87204" lon="3.5037">
        <ele>1181.1171875</ele>
        <time>2019-08-18T09:38:50Z</time>
      </trkpt>
      <trkpt lat="44.87218" lon="3.50366">
        <ele>1178.7136230469</ele>
        <time>2019-08-18T09:38:52Z</time>
      </trkpt>
      <trkpt lat="44.87263" lon="3.50359">
        <ele>1176.3103027344</ele>
        <time>2019-08-18T09:38:58Z</time>
      </trkpt>
      <trkpt lat="44.87287" lon="3.50354">
        <ele>1173.4265136719</ele>
        <time>2019-08-18T09:39:01Z</time>
      </trkpt>
      <trkpt lat="44.87331" lon="3.50335">
        <ele>1170.5424804688</ele>
        <time>2019-08-18T09:39:08Z</time>
      </trkpt>
      <trkpt lat="44.87372" lon="3.50316">
        <ele>1165.7360839844</ele>
        <time>2019-08-18T09:39:18Z</time>
      </trkpt>
      <trkpt lat="44.87378" lon="3.50314">
        <ele>1165.7360839844</ele>
        <time>2019-08-18T09:39:19Z</time>
      </trkpt>
      <trkpt lat="44.8739" lon="3.50312">
        <ele>1162.8518066406</ele>
        <time>2019-08-18T09:39:21Z</time>
      </trkpt>
      <trkpt lat="44.87409" lon="3.5031">
        <ele>1160.4484863281</ele>
        <time>2019-08-18T09:39:24Z</time>
      </trkpt>
      <trkpt lat="44.8742" lon="3.50309">
        <ele>1158.5258789062</ele>
        <time>2019-08-18T09:39:26Z</time>
      </trkpt>
      <trkpt lat="44.87443" lon="3.50306">
        <ele>1156.1225585938</ele>
        <time>2019-08-18T09:39:35Z</time>
      </trkpt>
      <trkpt lat="44.87448" lon="3.50303">
        <ele>1155.6420898438</ele>
        <time>2019-08-18T09:39:46Z</time>
      </trkpt>
      <trkpt lat="44.87454" lon="3.50299">
        <ele>1154.2001953125</ele>
        <time>2019-08-18T09:40:48Z</time>
      </trkpt>
      <trkpt lat="44.8746" lon="3.50292">
        <ele>1152.7580566406</ele>
        <time>2019-08-18T09:41:30Z</time>
      </trkpt>
      <trkpt lat="44.87471" lon="3.50285">
        <ele>1150.8354492188</ele>
        <time>2019-08-18T09:41:34Z</time>
      </trkpt>
      <trkpt lat="44.87478" lon="3.5028">
        <ele>1149.8742675781</ele>
        <time>2019-08-18T09:41:36Z</time>
      </trkpt>
      <trkpt lat="44.87493" lon="3.50275">
        <ele>1146.5095214844</ele>
        <time>2019-08-18T09:41:40Z</time>
      </trkpt>
      <trkpt lat="44.87497" lon="3.50275">
        <ele>1146.5095214844</ele>
        <time>2019-08-18T09:41:41Z</time>
      </trkpt>
      <trkpt lat="44.8752" lon="3.50271">
        <ele>1143.6254882812</ele>
        <time>2019-08-18T09:41:48Z</time>
      </trkpt>
      <trkpt lat="44.87526" lon="3.50269">
        <ele>1142.6643066406</ele>
        <time>2019-08-18T09:41:50Z</time>
      </trkpt>
      <trkpt lat="44.87532" lon="3.50265">
        <ele>1140.7414550781</ele>
        <time>2019-08-18T09:41:52Z</time>
      </trkpt>
      <trkpt lat="44.87536" lon="3.50262">
        <ele>1140.2609863281</ele>
        <time>2019-08-18T09:41:53Z</time>
      </trkpt>
      <trkpt lat="44.87549" lon="3.50256">
        <ele>1136.4157714844</ele>
        <time>2019-08-18T09:41:56Z</time>
      </trkpt>
      <trkpt lat="44.8757" lon="3.50238">
        <ele>1134.0124511719</ele>
        <time>2019-08-18T09:42:01Z</time>
      </trkpt>
      <trkpt lat="44.87577" lon="3.5023">
        <ele>1130.6477050781</ele>
        <time>2019-08-18T09:42:03Z</time>
      </trkpt>
      <trkpt lat="44.87588" lon="3.50217">
        <ele>1130.1669921875</ele>
        <time>2019-08-18T09:42:06Z</time>
      </trkpt>
      <trkpt lat="44.87599" lon="3.50208">
        <ele>1128.2443847656</ele>
        <time>2019-08-18T09:42:08Z</time>
      </trkpt>
      <trkpt lat="44.87619" lon="3.50197">
        <ele>1124.8798828125</ele>
        <time>2019-08-18T09:42:11Z</time>
      </trkpt>
      <trkpt lat="44.87641" lon="3.5019">
        <ele>1121.9958496094</ele>
        <time>2019-08-18T09:42:14Z</time>
      </trkpt>
      <trkpt lat="44.87648" lon="3.50188">
        <ele>1121.9958496094</ele>
        <time>2019-08-18T09:42:15Z</time>
      </trkpt>
      <trkpt lat="44.87656" lon="3.50185">
        <ele>1121.5151367188</ele>
        <time>2019-08-18T09:42:16Z</time>
      </trkpt>
      <trkpt lat="44.87672" lon="3.50174">
        <ele>1119.1120605469</ele>
        <time>2019-08-18T09:42:18Z</time>
      </trkpt>
      <trkpt lat="44.87686" lon="3.50163">
        <ele>1117.189453125</ele>
        <time>2019-08-18T09:42:20Z</time>
      </trkpt>
      <trkpt lat="44.87708" lon="3.50147">
        <ele>1117.189453125</ele>
        <time>2019-08-18T09:42:23Z</time>
      </trkpt>
      <trkpt lat="44.87726" lon="3.50126">
        <ele>1117.669921875</ele>
        <time>2019-08-18T09:42:27Z</time>
      </trkpt>
      <trkpt lat="44.87733" lon="3.50117">
        <ele>1117.189453125</ele>
        <time>2019-08-18T09:42:29Z</time>
      </trkpt>
      <trkpt lat="44.87755" lon="3.50114">
        <ele>1115.2666015625</ele>
        <time>2019-08-18T09:42:33Z</time>
      </trkpt>
      <trkpt lat="44.87777" lon="3.50129">
        <ele>1112.86328125</ele>
        <time>2019-08-18T09:42:38Z</time>
      </trkpt>
      <trkpt lat="44.87781" lon="3.50132">
        <ele>1111.4213867188</ele>
        <time>2019-08-18T09:42:39Z</time>
      </trkpt>
      <trkpt lat="44.87788" lon="3.50133">
        <ele>1110.4599609375</ele>
        <time>2019-08-18T09:42:41Z</time>
      </trkpt>
      <trkpt lat="44.87796" lon="3.50125">
        <ele>1108.5373535156</ele>
        <time>2019-08-18T09:42:43Z</time>
      </trkpt>
      <trkpt lat="44.87803" lon="3.50109">
        <ele>1106.1340332031</ele>
        <time>2019-08-18T09:42:45Z</time>
      </trkpt>
      <trkpt lat="44.87807" lon="3.50098">
        <ele>1103.2502441406</ele>
        <time>2019-08-18T09:42:46Z</time>
      </trkpt>
      <trkpt lat="44.87812" lon="3.50076">
        <ele>1101.8083496094</ele>
        <time>2019-08-18T09:42:48Z</time>
      </trkpt>
      <trkpt lat="44.87819" lon="3.50054">
        <ele>1099.8854980469</ele>
        <time>2019-08-18T09:42:50Z</time>
      </trkpt>
      <trkpt lat="44.87835" lon="3.50011">
        <ele>1097.962890625</ele>
        <time>2019-08-18T09:42:56Z</time>
      </trkpt>
      <trkpt lat="44.87839" lon="3.50008">
        <ele>1098.9240722656</ele>
        <time>2019-08-18T09:43:08Z</time>
      </trkpt>
      <trkpt lat="44.87839" lon="3.50009">
        <ele>1098.443359375</ele>
        <time>2019-08-18T09:44:32Z</time>
      </trkpt>
      <trkpt lat="44.87839" lon="3.50008">
        <ele>1098.443359375</ele>
        <time>2019-08-18T09:44:52Z</time>
      </trkpt>
      <trkpt lat="44.87847" lon="3.50006">
        <ele>1098.9240722656</ele>
        <time>2019-08-18T09:44:58Z</time>
      </trkpt>
      <trkpt lat="44.87854" lon="3.50006">
        <ele>1098.443359375</ele>
        <time>2019-08-18T09:45:00Z</time>
      </trkpt>
      <trkpt lat="44.87874" lon="3.50015">
        <ele>1098.443359375</ele>
        <time>2019-08-18T09:45:05Z</time>
      </trkpt>
      <trkpt lat="44.87889" lon="3.50021">
        <ele>1097.4821777344</ele>
        <time>2019-08-18T09:45:09Z</time>
      </trkpt>
      <trkpt lat="44.87941" lon="3.50015">
        <ele>1099.4047851562</ele>
        <time>2019-08-18T09:45:25Z</time>
      </trkpt>
      <trkpt lat="44.87943" lon="3.50015">
        <ele>1099.8854980469</ele>
        <time>2019-08-18T09:45:26Z</time>
      </trkpt>
      <trkpt lat="44.8795" lon="3.50014">
        <ele>1101.8083496094</ele>
        <time>2019-08-18T09:45:30Z</time>
      </trkpt>
      <trkpt lat="44.87976" lon="3.50003">
        <ele>1104.6921386719</ele>
        <time>2019-08-18T09:45:45Z</time>
      </trkpt>
      <trkpt lat="44.87984" lon="3.49998">
        <ele>1106.6147460938</ele>
        <time>2019-08-18T09:45:51Z</time>
      </trkpt>
      <trkpt lat="44.87989" lon="3.49996">
        <ele>1107.576171875</ele>
        <time>2019-08-18T09:45:55Z</time>
      </trkpt>
      <trkpt lat="44.87994" lon="3.5">
        <ele>1108.5373535156</ele>
        <time>2019-08-18T09:45:59Z</time>
      </trkpt>
      <trkpt lat="44.88009" lon="3.50009">
        <ele>1111.9020996094</ele>
        <time>2019-08-18T09:46:12Z</time>
      </trkpt>
      <trkpt lat="44.88009" lon="3.50009">
        <ele>1112.86328125</ele>
        <time>2019-08-18T09:46:14Z</time>
      </trkpt>
      <trkpt lat="44.88009" lon="3.50009">
        <ele>1114.7858886719</ele>
        <time>2019-08-18T09:46:23Z</time>
      </trkpt>
      <trkpt lat="44.88018" lon="3.49985">
        <ele>1117.669921875</ele>
        <time>2019-08-18T09:46:40Z</time>
      </trkpt>
      <trkpt lat="44.88018" lon="3.49977">
        <ele>1118.6313476562</ele>
        <time>2019-08-18T09:46:44Z</time>
      </trkpt>
      <trkpt lat="44.88018" lon="3.49975">
        <ele>1119.1120605469</ele>
        <time>2019-08-18T09:46:46Z</time>
      </trkpt>
      <trkpt lat="44.88018" lon="3.49965">
        <ele>1119.5927734375</ele>
        <time>2019-08-18T09:46:51Z</time>
      </trkpt>
      <trkpt lat="44.88036" lon="3.49941">
        <ele>1119.5927734375</ele>
        <time>2019-08-18T09:47:01Z</time>
      </trkpt>
      <trkpt lat="44.88039" lon="3.49935">
        <ele>1121.5151367188</ele>
        <time>2019-08-18T09:47:05Z</time>
      </trkpt>
      <trkpt lat="44.88042" lon="3.49936">
        <ele>1121.5151367188</ele>
        <time>2019-08-18T09:47:07Z</time>
      </trkpt>
      <trkpt lat="44.88053" lon="3.49934">
        <ele>1123.4379882812</ele>
        <time>2019-08-18T09:47:16Z</time>
      </trkpt>
      <trkpt lat="44.88054" lon="3.49934">
        <ele>1123.9184570312</ele>
        <time>2019-08-18T09:47:17Z</time>
      </trkpt>
      <trkpt lat="44.8806" lon="3.49933">
        <ele>1125.8410644531</ele>
        <time>2019-08-18T09:47:24Z</time>
      </trkpt>
      <trkpt lat="44.88065" lon="3.49932">
        <ele>1126.8024902344</ele>
        <time>2019-08-18T09:47:28Z</time>
      </trkpt>
      <trkpt lat="44.88068" lon="3.49931">
        <ele>1128.7250976562</ele>
        <time>2019-08-18T09:47:31Z</time>
      </trkpt>
      <trkpt lat="44.88075" lon="3.4993">
        <ele>1128.7250976562</ele>
        <time>2019-08-18T09:47:37Z</time>
      </trkpt>
      <trkpt lat="44.88078" lon="3.4993">
        <ele>1129.2055664062</ele>
        <time>2019-08-18T09:47:40Z</time>
      </trkpt>
      <trkpt lat="44.88081" lon="3.49929">
        <ele>1130.1669921875</ele>
        <time>2019-08-18T09:47:43Z</time>
      </trkpt>
      <trkpt lat="44.88086" lon="3.49928">
        <ele>1131.6088867188</ele>
        <time>2019-08-18T09:47:48Z</time>
      </trkpt>
      <trkpt lat="44.8809" lon="3.49928">
        <ele>1133.5317382812</ele>
        <time>2019-08-18T09:47:54Z</time>
      </trkpt>
      <trkpt lat="44.88091" lon="3.49927">
        <ele>1133.5317382812</ele>
        <time>2019-08-18T09:47:58Z</time>
      </trkpt>
      <trkpt lat="44.88091" lon="3.49927">
        <ele>1133.0510253906</ele>
        <time>2019-08-18T09:48:03Z</time>
      </trkpt>
      <trkpt lat="44.88123" lon="3.49923">
        <ele>1134.4931640625</ele>
        <time>2019-08-18T09:48:20Z</time>
      </trkpt>
      <trkpt lat="44.88131" lon="3.49916">
        <ele>1134.4931640625</ele>
        <time>2019-08-18T09:48:26Z</time>
      </trkpt>
      <trkpt lat="44.88137" lon="3.49911">
        <ele>1134.4931640625</ele>
        <time>2019-08-18T09:48:30Z</time>
      </trkpt>
      <trkpt lat="44.88143" lon="3.49905">
        <ele>1136.4157714844</ele>
        <time>2019-08-18T09:48:35Z</time>
      </trkpt>
      <trkpt lat="44.88147" lon="3.49902">
        <ele>1137.376953125</ele>
        <time>2019-08-18T09:48:52Z</time>
      </trkpt>
      <trkpt lat="44.88147" lon="3.49902">
        <ele>1137.376953125</ele>
        <time>2019-08-18T09:49:20Z</time>
      </trkpt>
      <trkpt lat="44.88177" lon="3.49899">
        <ele>1140.2609863281</ele>
        <time>2019-08-18T09:49:38Z</time>
      </trkpt>
      <trkpt lat="44.88181" lon="3.49897">
        <ele>1143.6254882812</ele>
        <time>2019-08-18T09:49:46Z</time>
      </trkpt>
      <trkpt lat="44.88198" lon="3.49896">
        <ele>1143.6254882812</ele>
        <time>2019-08-18T09:49:47Z</time>
      </trkpt>
      <trkpt lat="44.88226" lon="3.49903">
        <ele>1146.5095214844</ele>
        <time>2019-08-18T09:50:04Z</time>
      </trkpt>
      <trkpt lat="44.88258" lon="3.49893">
        <ele>1148.9128417969</ele>
        <time>2019-08-18T09:50:23Z</time>
      </trkpt>
      <trkpt lat="44.8829" lon="3.4987">
        <ele>1150.8354492188</ele>
        <time>2019-08-18T09:50:42Z</time>
      </trkpt>
      <trkpt lat="44.8833" lon="3.49826">
        <ele>1154.2001953125</ele>
        <time>2019-08-18T09:51:09Z</time>
      </trkpt>
      <trkpt lat="44.88355" lon="3.49779">
        <ele>1152.27734375</ele>
        <time>2019-08-18T09:51:29Z</time>
      </trkpt>
      <trkpt lat="44.88387" lon="3.49709">
        <ele>1153.2387695312</ele>
        <time>2019-08-18T09:51:54Z</time>
      </trkpt>
      <trkpt lat="44.88423" lon="3.49675">
        <ele>1153.2387695312</ele>
        <time>2019-08-18T09:52:10Z</time>
      </trkpt>
      <trkpt lat="44.8848" lon="3.49673">
        <ele>1155.6420898438</ele>
        <time>2019-08-18T09:52:32Z</time>
      </trkpt>
      <trkpt lat="44.88552" lon="3.49679">
        <ele>1156.1225585938</ele>
        <time>2019-08-18T09:52:58Z</time>
      </trkpt>
      <trkpt lat="44.8862" lon="3.49677">
        <ele>1157.083984375</ele>
        <time>2019-08-18T09:53:21Z</time>
      </trkpt>
      <trkpt lat="44.88668" lon="3.49649">
        <ele>1159.0065917969</ele>
        <time>2019-08-18T09:53:42Z</time>
      </trkpt>
      <trkpt lat="44.88701" lon="3.49612">
        <ele>1157.083984375</ele>
        <time>2019-08-18T09:53:57Z</time>
      </trkpt>
      <trkpt lat="44.88718" lon="3.49591">
        <ele>1154.2001953125</ele>
        <time>2019-08-18T09:54:04Z</time>
      </trkpt>
      <trkpt lat="44.88733" lon="3.49573">
        <ele>1151.3161621094</ele>
        <time>2019-08-18T09:54:10Z</time>
      </trkpt>
      <trkpt lat="44.88738" lon="3.4957">
        <ele>1151.3161621094</ele>
        <time>2019-08-18T09:54:11Z</time>
      </trkpt>
      <trkpt lat="44.88745" lon="3.49568">
        <ele>1150.8354492188</ele>
        <time>2019-08-18T09:54:13Z</time>
      </trkpt>
      <trkpt lat="44.88756" lon="3.49542">
        <ele>1146.5095214844</ele>
        <time>2019-08-18T09:54:17Z</time>
      </trkpt>
      <trkpt lat="44.88778" lon="3.49498">
        <ele>1143.6254882812</ele>
        <time>2019-08-18T09:54:23Z</time>
      </trkpt>
      <trkpt lat="44.88786" lon="3.49482">
        <ele>1142.18359375</ele>
        <time>2019-08-18T09:54:25Z</time>
      </trkpt>
      <trkpt lat="44.88794" lon="3.49466">
        <ele>1142.18359375</ele>
        <time>2019-08-18T09:54:27Z</time>
      </trkpt>
      <trkpt lat="44.88818" lon="3.49433">
        <ele>1143.1447753906</ele>
        <time>2019-08-18T09:54:32Z</time>
      </trkpt>
      <trkpt lat="44.88833" lon="3.49445">
        <ele>1142.6643066406</ele>
        <time>2019-08-18T09:54:34Z</time>
      </trkpt>
      <trkpt lat="44.88862" lon="3.49463">
        <ele>1138.3383789062</ele>
        <time>2019-08-18T09:54:38Z</time>
      </trkpt>
      <trkpt lat="44.8887" lon="3.49468">
        <ele>1138.3383789062</ele>
        <time>2019-08-18T09:54:39Z</time>
      </trkpt>
      <trkpt lat="44.88888" lon="3.4948">
        <ele>1137.376953125</ele>
        <time>2019-08-18T09:54:41Z</time>
      </trkpt>
      <trkpt lat="44.88907" lon="3.49491">
        <ele>1134.9738769531</ele>
        <time>2019-08-18T09:54:43Z</time>
      </trkpt>
      <trkpt lat="44.88915" lon="3.49496">
        <ele>1136.4157714844</ele>
        <time>2019-08-18T09:54:44Z</time>
      </trkpt>
      <trkpt lat="44.88964" lon="3.49493">
        <ele>1138.3383789062</ele>
        <time>2019-08-18T09:54:51Z</time>
      </trkpt>
      <trkpt lat="44.88965" lon="3.49493">
        <ele>1138.3383789062</ele>
        <time>2019-08-18T09:54:52Z</time>
      </trkpt>
      <trkpt lat="44.88965" lon="3.49493">
        <ele>1138.8190917969</ele>
        <time>2019-08-18T09:55:06Z</time>
      </trkpt>
      <trkpt lat="44.88983" lon="3.4951">
        <ele>1137.8576660156</ele>
        <time>2019-08-18T09:55:14Z</time>
      </trkpt>
      <trkpt lat="44.88998" lon="3.49532">
        <ele>1138.8190917969</ele>
        <time>2019-08-18T09:55:20Z</time>
      </trkpt>
      <trkpt lat="44.89001" lon="3.49539">
        <ele>1140.7414550781</ele>
        <time>2019-08-18T09:55:23Z</time>
      </trkpt>
      <trkpt lat="44.89007" lon="3.49557">
        <ele>1138.8190917969</ele>
        <time>2019-08-18T09:55:27Z</time>
      </trkpt>
      <trkpt lat="44.89009" lon="3.49565">
        <ele>1137.8576660156</ele>
        <time>2019-08-18T09:55:28Z</time>
      </trkpt>
      <trkpt lat="44.8905" lon="3.49611">
        <ele>1139.7802734375</ele>
        <time>2019-08-18T09:55:39Z</time>
      </trkpt>
      <trkpt lat="44.891" lon="3.49628">
        <ele>1141.7028808594</ele>
        <time>2019-08-18T09:55:54Z</time>
      </trkpt>
      <trkpt lat="44.89146" lon="3.49661">
        <ele>1142.6643066406</ele>
        <time>2019-08-18T09:56:09Z</time>
      </trkpt>
      <trkpt lat="44.89155" lon="3.49678">
        <ele>1143.6254882812</ele>
        <time>2019-08-18T09:56:13Z</time>
      </trkpt>
      <trkpt lat="44.89203" lon="3.49766">
        <ele>1145.0673828125</ele>
        <time>2019-08-18T09:56:33Z</time>
      </trkpt>
      <trkpt lat="44.8925" lon="3.49851">
        <ele>1145.0673828125</ele>
        <time>2019-08-18T09:56:49Z</time>
      </trkpt>
      <trkpt lat="44.89259" lon="3.49861">
        <ele>1144.1062011719</ele>
        <time>2019-08-18T09:56:51Z</time>
      </trkpt>
      <trkpt lat="44.89272" lon="3.49878">
        <ele>1144.5866699219</ele>
        <time>2019-08-18T09:56:54Z</time>
      </trkpt>
      <trkpt lat="44.89305" lon="3.49935">
        <ele>1145.5480957031</ele>
        <time>2019-08-18T09:57:03Z</time>
      </trkpt>
      <trkpt lat="44.89325" lon="3.49951">
        <ele>1146.9899902344</ele>
        <time>2019-08-18T09:57:08Z</time>
      </trkpt>
      <trkpt lat="44.89368" lon="3.49978">
        <ele>1149.8742675781</ele>
        <time>2019-08-18T09:57:22Z</time>
      </trkpt>
      <trkpt lat="44.89407" lon="3.49999">
        <ele>1153.2387695312</ele>
        <time>2019-08-18T09:57:38Z</time>
      </trkpt>
      <trkpt lat="44.89453" lon="3.5002">
        <ele>1155.1613769531</ele>
        <time>2019-08-18T09:57:56Z</time>
      </trkpt>
      <trkpt lat="44.89487" lon="3.50025">
        <ele>1156.1225585938</ele>
        <time>2019-08-18T09:58:11Z</time>
      </trkpt>
      <trkpt lat="44.89487" lon="3.50025">
        <ele>1157.5646972656</ele>
        <time>2019-08-18T09:58:16Z</time>
      </trkpt>
      <trkpt lat="44.89487" lon="3.50025">
        <ele>1155.6420898438</ele>
        <time>2019-08-18T09:59:11Z</time>
      </trkpt>
      <trkpt lat="44.8949" lon="3.50018">
        <ele>1156.1225585938</ele>
        <time>2019-08-18T09:59:15Z</time>
      </trkpt>
      <trkpt lat="44.89485" lon="3.49978">
        <ele>1156.1225585938</ele>
        <time>2019-08-18T09:59:27Z</time>
      </trkpt>
      <trkpt lat="44.89475" lon="3.49913">
        <ele>1158.5258789062</ele>
        <time>2019-08-18T09:59:44Z</time>
      </trkpt>
      <trkpt lat="44.89454" lon="3.49861">
        <ele>1161.4099121094</ele>
        <time>2019-08-18T10:00:04Z</time>
      </trkpt>
      <trkpt lat="44.89437" lon="3.49809">
        <ele>1161.890625</ele>
        <time>2019-08-18T10:00:22Z</time>
      </trkpt>
      <trkpt lat="44.89426" lon="3.49765">
        <ele>1163.3325195312</ele>
        <time>2019-08-18T10:00:37Z</time>
      </trkpt>
      <trkpt lat="44.89415" lon="3.49722">
        <ele>1166.2165527344</ele>
        <time>2019-08-18T10:00:54Z</time>
      </trkpt>
      <trkpt lat="44.89408" lon="3.49692">
        <ele>1168.1391601562</ele>
        <time>2019-08-18T10:01:08Z</time>
      </trkpt>
      <trkpt lat="44.89392" lon="3.49635">
        <ele>1169.1005859375</ele>
        <time>2019-08-18T10:01:30Z</time>
      </trkpt>
      <trkpt lat="44.89384" lon="3.49614">
        <ele>1170.0617675781</ele>
        <time>2019-08-18T10:02:26Z</time>
      </trkpt>
      <trkpt lat="44.8936" lon="3.49554">
        <ele>1172.9458007812</ele>
        <time>2019-08-18T10:02:45Z</time>
      </trkpt>
      <trkpt lat="44.89347" lon="3.49483">
        <ele>1175.8295898438</ele>
        <time>2019-08-18T10:03:05Z</time>
      </trkpt>
      <trkpt lat="44.89334" lon="3.49435">
        <ele>1178.2329101562</ele>
        <time>2019-08-18T10:03:23Z</time>
      </trkpt>
      <trkpt lat="44.89317" lon="3.49388">
        <ele>1180.6364746094</ele>
        <time>2019-08-18T10:03:44Z</time>
      </trkpt>
      <trkpt lat="44.89305" lon="3.49351">
        <ele>1181.1171875</ele>
        <time>2019-08-18T10:03:58Z</time>
      </trkpt>
      <trkpt lat="44.89285" lon="3.49313">
        <ele>1180.1557617188</ele>
        <time>2019-08-18T10:04:11Z</time>
      </trkpt>
      <trkpt lat="44.89267" lon="3.49279">
        <ele>1179.1940917969</ele>
        <time>2019-08-18T10:04:20Z</time>
      </trkpt>
      <trkpt lat="44.89227" lon="3.49203">
        <ele>1180.6364746094</ele>
        <time>2019-08-18T10:04:40Z</time>
      </trkpt>
      <trkpt lat="44.89219" lon="3.49187">
        <ele>1179.6748046875</ele>
        <time>2019-08-18T10:04:45Z</time>
      </trkpt>
      <trkpt lat="44.89191" lon="3.49122">
        <ele>1179.6748046875</ele>
        <time>2019-08-18T10:05:03Z</time>
      </trkpt>
      <trkpt lat="44.89189" lon="3.49118">
        <ele>1179.6748046875</ele>
        <time>2019-08-18T10:05:04Z</time>
      </trkpt>
      <trkpt lat="44.89181" lon="3.49099">
        <ele>1180.6364746094</ele>
        <time>2019-08-18T10:05:17Z</time>
      </trkpt>
      <trkpt lat="44.89154" lon="3.48937">
        <ele>1181.1171875</ele>
        <time>2019-08-18T10:05:39Z</time>
      </trkpt>
      <trkpt lat="44.89139" lon="3.48883">
        <ele>1183.0395507812</ele>
        <time>2019-08-18T10:05:56Z</time>
      </trkpt>
      <trkpt lat="44.89131" lon="3.48833">
        <ele>1184.0009765625</ele>
        <time>2019-08-18T10:06:13Z</time>
      </trkpt>
      <trkpt lat="44.8913" lon="3.48818">
        <ele>1185.9235839844</ele>
        <time>2019-08-18T10:06:18Z</time>
      </trkpt>
      <trkpt lat="44.89132" lon="3.48774">
        <ele>1188.3269042969</ele>
        <time>2019-08-18T10:06:34Z</time>
      </trkpt>
      <trkpt lat="44.89136" lon="3.48751">
        <ele>1190.7299804688</ele>
        <time>2019-08-18T10:06:45Z</time>
      </trkpt>
      <trkpt lat="44.89136" lon="3.48732">
        <ele>1190.7299804688</ele>
        <time>2019-08-18T10:06:53Z</time>
      </trkpt>
      <trkpt lat="44.89138" lon="3.48685">
        <ele>1194.0947265625</ele>
        <time>2019-08-18T10:07:10Z</time>
      </trkpt>
      <trkpt lat="44.89138" lon="3.48682">
        <ele>1194.0947265625</ele>
        <time>2019-08-18T10:07:11Z</time>
      </trkpt>
      <trkpt lat="44.89163" lon="3.48641">
        <ele>1195.0559082031</ele>
        <time>2019-08-18T10:07:30Z</time>
      </trkpt>
      <trkpt lat="44.8919" lon="3.48602">
        <ele>1195.5366210938</ele>
        <time>2019-08-18T10:07:49Z</time>
      </trkpt>
      <trkpt lat="44.89196" lon="3.48593">
        <ele>1196.9787597656</ele>
        <time>2019-08-18T10:07:53Z</time>
      </trkpt>
      <trkpt lat="44.89218" lon="3.48546">
        <ele>1199.3820800781</ele>
        <time>2019-08-18T10:08:13Z</time>
      </trkpt>
      <trkpt lat="44.89229" lon="3.48509">
        <ele>1199.8627929688</ele>
        <time>2019-08-18T10:08:26Z</time>
      </trkpt>
      <trkpt lat="44.89233" lon="3.48496">
        <ele>1200.3435058594</ele>
        <time>2019-08-18T10:08:30Z</time>
      </trkpt>
      <trkpt lat="44.89254" lon="3.48437">
        <ele>1200.8239746094</ele>
        <time>2019-08-18T10:08:49Z</time>
      </trkpt>
      <trkpt lat="44.89286" lon="3.48365">
        <ele>1200.3435058594</ele>
        <time>2019-08-18T10:09:10Z</time>
      </trkpt>
      <trkpt lat="44.89304" lon="3.48312">
        <ele>1201.3046875</ele>
        <time>2019-08-18T10:09:27Z</time>
      </trkpt>
      <trkpt lat="44.89324" lon="3.48255">
        <ele>1201.3046875</ele>
        <time>2019-08-18T10:09:45Z</time>
      </trkpt>
      <trkpt lat="44.89331" lon="3.48182">
        <ele>1202.7465820312</ele>
        <time>2019-08-18T10:10:05Z</time>
      </trkpt>
      <trkpt lat="44.89343" lon="3.48146">
        <ele>1201.7854003906</ele>
        <time>2019-08-18T10:10:20Z</time>
      </trkpt>
      <trkpt lat="44.89358" lon="3.48129">
        <ele>1202.2658691406</ele>
        <time>2019-08-18T10:10:30Z</time>
      </trkpt>
      <trkpt lat="44.89387" lon="3.48083">
        <ele>1199.3820800781</ele>
        <time>2019-08-18T10:10:45Z</time>
      </trkpt>
      <trkpt lat="44.89405" lon="3.48065">
        <ele>1197.9401855469</ele>
        <time>2019-08-18T10:10:50Z</time>
      </trkpt>
      <trkpt lat="44.89417" lon="3.48057">
        <ele>1197.4594726562</ele>
        <time>2019-08-18T10:10:53Z</time>
      </trkpt>
      <trkpt lat="44.89432" lon="3.48049">
        <ele>1196.017578125</ele>
        <time>2019-08-18T10:10:56Z</time>
      </trkpt>
      <trkpt lat="44.89445" lon="3.48038">
        <ele>1196.017578125</ele>
        <time>2019-08-18T10:10:59Z</time>
      </trkpt>
      <trkpt lat="44.89467" lon="3.48008">
        <ele>1195.0559082031</ele>
        <time>2019-08-18T10:11:05Z</time>
      </trkpt>
      <trkpt lat="44.89474" lon="3.47998">
        <ele>1193.6140136719</ele>
        <time>2019-08-18T10:11:07Z</time>
      </trkpt>
      <trkpt lat="44.89483" lon="3.47979">
        <ele>1193.1333007812</ele>
        <time>2019-08-18T10:11:10Z</time>
      </trkpt>
      <trkpt lat="44.8949" lon="3.47967">
        <ele>1192.6528320312</ele>
        <time>2019-08-18T10:11:12Z</time>
      </trkpt>
      <trkpt lat="44.89507" lon="3.47948">
        <ele>1192.1721191406</ele>
        <time>2019-08-18T10:11:16Z</time>
      </trkpt>
      <trkpt lat="44.89524" lon="3.47922">
        <ele>1191.2106933594</ele>
        <time>2019-08-18T10:11:20Z</time>
      </trkpt>
      <trkpt lat="44.89537" lon="3.4791">
        <ele>1190.7299804688</ele>
        <time>2019-08-18T10:11:23Z</time>
      </trkpt>
      <trkpt lat="44.89587" lon="3.47871">
        <ele>1189.7687988281</ele>
        <time>2019-08-18T10:11:35Z</time>
      </trkpt>
      <trkpt lat="44.89624" lon="3.47858">
        <ele>1190.7299804688</ele>
        <time>2019-08-18T10:11:45Z</time>
      </trkpt>
      <trkpt lat="44.89674" lon="3.47828">
        <ele>1188.3269042969</ele>
        <time>2019-08-18T10:11:57Z</time>
      </trkpt>
      <trkpt lat="44.89727" lon="3.47796">
        <ele>1186.404296875</ele>
        <time>2019-08-18T10:12:09Z</time>
      </trkpt>
      <trkpt lat="44.89751" lon="3.47771">
        <ele>1185.9235839844</ele>
        <time>2019-08-18T10:12:17Z</time>
      </trkpt>
      <trkpt lat="44.89763" lon="3.47759">
        <ele>1185.9235839844</ele>
        <time>2019-08-18T10:12:21Z</time>
      </trkpt>
      <trkpt lat="44.89791" lon="3.47706">
        <ele>1186.884765625</ele>
        <time>2019-08-18T10:12:33Z</time>
      </trkpt>
      <trkpt lat="44.89816" lon="3.47654">
        <ele>1185.9235839844</ele>
        <time>2019-08-18T10:12:46Z</time>
      </trkpt>
      <trkpt lat="44.89852" lon="3.47616">
        <ele>1184.9624023438</ele>
        <time>2019-08-18T10:12:58Z</time>
      </trkpt>
      <trkpt lat="44.89895" lon="3.47606">
        <ele>1184.4816894531</ele>
        <time>2019-08-18T10:13:08Z</time>
      </trkpt>
      <trkpt lat="44.89935" lon="3.47596">
        <ele>1184.0009765625</ele>
        <time>2019-08-18T10:13:20Z</time>
      </trkpt>
      <trkpt lat="44.89935" lon="3.47596">
        <ele>1184.4816894531</ele>
        <time>2019-08-18T10:13:54Z</time>
      </trkpt>
      <trkpt lat="44.89941" lon="3.47596">
        <ele>1184.4816894531</ele>
        <time>2019-08-18T10:14:04Z</time>
      </trkpt>
      <trkpt lat="44.89968" lon="3.47609">
        <ele>1184.4816894531</ele>
        <time>2019-08-18T10:14:18Z</time>
      </trkpt>
      <trkpt lat="44.89971" lon="3.47614">
        <ele>1184.0009765625</ele>
        <time>2019-08-18T10:14:21Z</time>
      </trkpt>
      <trkpt lat="44.9" lon="3.47626">
        <ele>1183.0395507812</ele>
        <time>2019-08-18T10:14:31Z</time>
      </trkpt>
      <trkpt lat="44.90015" lon="3.47632">
        <ele>1182.0783691406</ele>
        <time>2019-08-18T10:14:35Z</time>
      </trkpt>
      <trkpt lat="44.90048" lon="3.47646">
        <ele>1180.6364746094</ele>
        <time>2019-08-18T10:14:42Z</time>
      </trkpt>
      <trkpt lat="44.90104" lon="3.47663">
        <ele>1180.1557617188</ele>
        <time>2019-08-18T10:14:56Z</time>
      </trkpt>
      <trkpt lat="44.9011" lon="3.47662">
        <ele>1180.6364746094</ele>
        <time>2019-08-18T10:14:58Z</time>
      </trkpt>
      <trkpt lat="44.90165" lon="3.47671">
        <ele>1180.1557617188</ele>
        <time>2019-08-18T10:15:14Z</time>
      </trkpt>
      <trkpt lat="44.90199" lon="3.47675">
        <ele>1179.6748046875</ele>
        <time>2019-08-18T10:15:23Z</time>
      </trkpt>
      <trkpt lat="44.90223" lon="3.47682">
        <ele>1179.1940917969</ele>
        <time>2019-08-18T10:15:28Z</time>
      </trkpt>
      <trkpt lat="44.90236" lon="3.47686">
        <ele>1179.1940917969</ele>
        <time>2019-08-18T10:15:31Z</time>
      </trkpt>
      <trkpt lat="44.90269" lon="3.47695">
        <ele>1178.7136230469</ele>
        <time>2019-08-18T10:15:38Z</time>
      </trkpt>
      <trkpt lat="44.90363" lon="3.47684">
        <ele>1177.2717285156</ele>
        <time>2019-08-18T10:15:59Z</time>
      </trkpt>
      <trkpt lat="44.90369" lon="3.47682">
        <ele>1178.2329101562</ele>
        <time>2019-08-18T10:16:09Z</time>
      </trkpt>
      <trkpt lat="44.90381" lon="3.47679">
        <ele>1177.2717285156</ele>
        <time>2019-08-18T10:16:59Z</time>
      </trkpt>
      <trkpt lat="44.90419" lon="3.47674">
        <ele>1177.7521972656</ele>
        <time>2019-08-18T10:17:18Z</time>
      </trkpt>
      <trkpt lat="44.90465" lon="3.47665">
        <ele>1177.7521972656</ele>
        <time>2019-08-18T10:17:35Z</time>
      </trkpt>
      <trkpt lat="44.90493" lon="3.47662">
        <ele>1177.7521972656</ele>
        <time>2019-08-18T10:17:45Z</time>
      </trkpt>
      <trkpt lat="44.90521" lon="3.47677">
        <ele>1177.2717285156</ele>
        <time>2019-08-18T10:17:56Z</time>
      </trkpt>
      <trkpt lat="44.9054" lon="3.4771">
        <ele>1177.2717285156</ele>
        <time>2019-08-18T10:18:06Z</time>
      </trkpt>
      <trkpt lat="44.90553" lon="3.47742">
        <ele>1176.791015625</ele>
        <time>2019-08-18T10:18:14Z</time>
      </trkpt>
      <trkpt lat="44.90585" lon="3.47783">
        <ele>1176.3103027344</ele>
        <time>2019-08-18T10:18:27Z</time>
      </trkpt>
      <trkpt lat="44.90641" lon="3.47814">
        <ele>1175.3488769531</ele>
        <time>2019-08-18T10:18:43Z</time>
      </trkpt>
      <trkpt lat="44.90681" lon="3.4783">
        <ele>1174.8684082031</ele>
        <time>2019-08-18T10:18:56Z</time>
      </trkpt>
      <trkpt lat="44.90708" lon="3.47843">
        <ele>1174.3876953125</ele>
        <time>2019-08-18T10:19:05Z</time>
      </trkpt>
      <trkpt lat="44.90727" lon="3.47846">
        <ele>1174.3876953125</ele>
        <time>2019-08-18T10:19:10Z</time>
      </trkpt>
      <trkpt lat="44.90733" lon="3.47862">
        <ele>1173.9069824219</ele>
        <time>2019-08-18T10:19:14Z</time>
      </trkpt>
      <trkpt lat="44.90741" lon="3.47929">
        <ele>1175.8295898438</ele>
        <time>2019-08-18T10:19:32Z</time>
      </trkpt>
      <trkpt lat="44.90736" lon="3.47994">
        <ele>1177.7521972656</ele>
        <time>2019-08-18T10:19:51Z</time>
      </trkpt>
      <trkpt lat="44.90742" lon="3.48001">
        <ele>1178.2329101562</ele>
        <time>2019-08-18T10:19:55Z</time>
      </trkpt>
      <trkpt lat="44.90766" lon="3.48009">
        <ele>1179.1940917969</ele>
        <time>2019-08-18T10:20:07Z</time>
      </trkpt>
      <trkpt lat="44.90785" lon="3.4802">
        <ele>1180.6364746094</ele>
        <time>2019-08-18T10:20:20Z</time>
      </trkpt>
      <trkpt lat="44.90789" lon="3.48053">
        <ele>1178.7136230469</ele>
        <time>2019-08-18T10:20:31Z</time>
      </trkpt>
      <trkpt lat="44.9079" lon="3.48096">
        <ele>1178.2329101562</ele>
        <time>2019-08-18T10:20:39Z</time>
      </trkpt>
      <trkpt lat="44.90799" lon="3.48139">
        <ele>1177.7521972656</ele>
        <time>2019-08-18T10:20:49Z</time>
      </trkpt>
      <trkpt lat="44.90804" lon="3.48148">
        <ele>1176.3103027344</ele>
        <time>2019-08-18T10:20:51Z</time>
      </trkpt>
      <trkpt lat="44.90807" lon="3.4815">
        <ele>1175.3488769531</ele>
        <time>2019-08-18T10:20:53Z</time>
      </trkpt>
      <trkpt lat="44.90809" lon="3.48155">
        <ele>1173.9069824219</ele>
        <time>2019-08-18T10:20:55Z</time>
      </trkpt>
      <trkpt lat="44.90817" lon="3.48167">
        <ele>1172.4650878906</ele>
        <time>2019-08-18T10:20:58Z</time>
      </trkpt>
      <trkpt lat="44.90823" lon="3.48179">
        <ele>1171.5036621094</ele>
        <time>2019-08-18T10:21:01Z</time>
      </trkpt>
      <trkpt lat="44.90836" lon="3.48226">
        <ele>1169.5812988281</ele>
        <time>2019-08-18T10:21:08Z</time>
      </trkpt>
      <trkpt lat="44.9084" lon="3.48248">
        <ele>1168.1391601562</ele>
        <time>2019-08-18T10:21:11Z</time>
      </trkpt>
      <trkpt lat="44.90847" lon="3.48317">
        <ele>1167.1779785156</ele>
        <time>2019-08-18T10:21:22Z</time>
      </trkpt>
      <trkpt lat="44.90852" lon="3.48372">
        <ele>1163.8129882812</ele>
        <time>2019-08-18T10:21:31Z</time>
      </trkpt>
      <trkpt lat="44.90864" lon="3.48401">
        <ele>1161.890625</ele>
        <time>2019-08-18T10:21:37Z</time>
      </trkpt>
      <trkpt lat="44.90872" lon="3.48423">
        <ele>1160.9291992188</ele>
        <time>2019-08-18T10:21:42Z</time>
      </trkpt>
      <trkpt lat="44.90873" lon="3.4843">
        <ele>1160.9291992188</ele>
        <time>2019-08-18T10:22:03Z</time>
      </trkpt>
      <trkpt lat="44.90874" lon="3.48431">
        <ele>1160.4484863281</ele>
        <time>2019-08-18T10:22:08Z</time>
      </trkpt>
      <trkpt lat="44.90892" lon="3.48427">
        <ele>1157.5646972656</ele>
        <time>2019-08-18T10:22:19Z</time>
      </trkpt>
      <trkpt lat="44.90908" lon="3.4842">
        <ele>1154.6806640625</ele>
        <time>2019-08-18T10:22:26Z</time>
      </trkpt>
      <trkpt lat="44.90924" lon="3.48415">
        <ele>1151.796875</ele>
        <time>2019-08-18T10:22:32Z</time>
      </trkpt>
      <trkpt lat="44.90927" lon="3.48415">
        <ele>1151.796875</ele>
        <time>2019-08-18T10:22:33Z</time>
      </trkpt>
      <trkpt lat="44.9094" lon="3.48413">
        <ele>1149.8742675781</ele>
        <time>2019-08-18T10:22:37Z</time>
      </trkpt>
      <trkpt lat="44.90952" lon="3.48403">
        <ele>1148.4321289062</ele>
        <time>2019-08-18T10:22:41Z</time>
      </trkpt>
      <trkpt lat="44.90981" lon="3.48394">
        <ele>1145.0673828125</ele>
        <time>2019-08-18T10:22:52Z</time>
      </trkpt>
      <trkpt lat="44.90991" lon="3.48387">
        <ele>1142.6643066406</ele>
        <time>2019-08-18T10:22:56Z</time>
      </trkpt>
      <trkpt lat="44.90999" lon="3.48379">
        <ele>1141.2221679688</ele>
        <time>2019-08-18T10:23:00Z</time>
      </trkpt>
      <trkpt lat="44.91003" lon="3.48376">
        <ele>1139.7802734375</ele>
        <time>2019-08-18T10:23:03Z</time>
      </trkpt>
      <trkpt lat="44.91006" lon="3.48376">
        <ele>1138.8190917969</ele>
        <time>2019-08-18T10:23:04Z</time>
      </trkpt>
      <trkpt lat="44.91015" lon="3.48373">
        <ele>1136.8962402344</ele>
        <time>2019-08-18T10:23:07Z</time>
      </trkpt>
      <trkpt lat="44.91022" lon="3.48365">
        <ele>1137.8576660156</ele>
        <time>2019-08-18T10:23:17Z</time>
      </trkpt>
      <trkpt lat="44.91023" lon="3.48364">
        <ele>1137.376953125</ele>
        <time>2019-08-18T10:23:27Z</time>
      </trkpt>
      <trkpt lat="44.9103" lon="3.48362">
        <ele>1137.8576660156</ele>
        <time>2019-08-18T10:23:31Z</time>
      </trkpt>
      <trkpt lat="44.91035" lon="3.48362">
        <ele>1138.3383789062</ele>
        <time>2019-08-18T10:23:34Z</time>
      </trkpt>
      <trkpt lat="44.9104" lon="3.48359">
        <ele>1139.2995605469</ele>
        <time>2019-08-18T10:23:37Z</time>
      </trkpt>
      <trkpt lat="44.91074" lon="3.4835">
        <ele>1141.2221679688</ele>
        <time>2019-08-18T10:23:54Z</time>
      </trkpt>
      <trkpt lat="44.91092" lon="3.48342">
        <ele>1140.2609863281</ele>
        <time>2019-08-18T10:24:04Z</time>
      </trkpt>
      <trkpt lat="44.91119" lon="3.48338">
        <ele>1140.2609863281</ele>
        <time>2019-08-18T10:24:18Z</time>
      </trkpt>
      <trkpt lat="44.91122" lon="3.48337">
        <ele>1140.2609863281</ele>
        <time>2019-08-18T10:24:19Z</time>
      </trkpt>
      <trkpt lat="44.91129" lon="3.48336">
        <ele>1140.2609863281</ele>
        <time>2019-08-18T10:24:23Z</time>
      </trkpt>
      <trkpt lat="44.91166" lon="3.48344">
        <ele>1140.7414550781</ele>
        <time>2019-08-18T10:24:38Z</time>
      </trkpt>
      <trkpt lat="44.91206" lon="3.48378">
        <ele>1139.7802734375</ele>
        <time>2019-08-18T10:24:55Z</time>
      </trkpt>
      <trkpt lat="44.91248" lon="3.48411">
        <ele>1138.8190917969</ele>
        <time>2019-08-18T10:25:09Z</time>
      </trkpt>
      <trkpt lat="44.91274" lon="3.4843">
        <ele>1137.376953125</ele>
        <time>2019-08-18T10:25:16Z</time>
      </trkpt>
      <trkpt lat="44.91298" lon="3.48432">
        <ele>1134.9738769531</ele>
        <time>2019-08-18T10:25:22Z</time>
      </trkpt>
      <trkpt lat="44.91315" lon="3.48433">
        <ele>1134.0124511719</ele>
        <time>2019-08-18T10:25:26Z</time>
      </trkpt>
      <trkpt lat="44.91328" lon="3.48437">
        <ele>1131.6088867188</ele>
        <time>2019-08-18T10:25:29Z</time>
      </trkpt>
      <trkpt lat="44.91342" lon="3.48442">
        <ele>1130.1669921875</ele>
        <time>2019-08-18T10:25:32Z</time>
      </trkpt>
      <trkpt lat="44.91365" lon="3.48443">
        <ele>1127.283203125</ele>
        <time>2019-08-18T10:25:36Z</time>
      </trkpt>
      <trkpt lat="44.91379" lon="3.48443">
        <ele>1126.3217773438</ele>
        <time>2019-08-18T10:25:38Z</time>
      </trkpt>
      <trkpt lat="44.91429" lon="3.48467">
        <ele>1125.3603515625</ele>
        <time>2019-08-18T10:25:48Z</time>
      </trkpt>
      <trkpt lat="44.91429" lon="3.48467">
        <ele>1125.8410644531</ele>
        <time>2019-08-18T10:26:00Z</time>
      </trkpt>
      <trkpt lat="44.91433" lon="3.48468">
        <ele>1125.3603515625</ele>
        <time>2019-08-18T10:26:41Z</time>
      </trkpt>
      <trkpt lat="44.91455" lon="3.48475">
        <ele>1125.3603515625</ele>
        <time>2019-08-18T10:26:50Z</time>
      </trkpt>
      <trkpt lat="44.9146" lon="3.48477">
        <ele>1124.3991699219</ele>
        <time>2019-08-18T10:26:53Z</time>
      </trkpt>
      <trkpt lat="44.9146" lon="3.48477">
        <ele>1121.9958496094</ele>
        <time>2019-08-18T10:27:03Z</time>
      </trkpt>
      <trkpt lat="44.91504" lon="3.48514">
        <ele>1120.0732421875</ele>
        <time>2019-08-18T10:27:07Z</time>
      </trkpt>
      <trkpt lat="44.91515" lon="3.48515">
        <ele>1118.1506347656</ele>
        <time>2019-08-18T10:27:13Z</time>
      </trkpt>
      <trkpt lat="44.91517" lon="3.48513">
        <ele>1116.7087402344</ele>
        <time>2019-08-18T10:27:14Z</time>
      </trkpt>
      <trkpt lat="44.9153" lon="3.48502">
        <ele>1113.8244628906</ele>
        <time>2019-08-18T10:27:19Z</time>
      </trkpt>
      <trkpt lat="44.91554" lon="3.48497">
        <ele>1110.4599609375</ele>
        <time>2019-08-18T10:27:26Z</time>
      </trkpt>
      <trkpt lat="44.91558" lon="3.48497">
        <ele>1110.4599609375</ele>
        <time>2019-08-18T10:27:27Z</time>
      </trkpt>
      <trkpt lat="44.91566" lon="3.485">
        <ele>1109.0180664062</ele>
        <time>2019-08-18T10:27:29Z</time>
      </trkpt>
      <trkpt lat="44.91575" lon="3.485">
        <ele>1107.576171875</ele>
        <time>2019-08-18T10:27:31Z</time>
      </trkpt>
      <trkpt lat="44.91586" lon="3.48501">
        <ele>1105.6535644531</ele>
        <time>2019-08-18T10:27:34Z</time>
      </trkpt>
      <trkpt lat="44.91596" lon="3.48497">
        <ele>1102.76953125</ele>
        <time>2019-08-18T10:27:37Z</time>
      </trkpt>
      <trkpt lat="44.91612" lon="3.48498">
        <ele>1099.4047851562</ele>
        <time>2019-08-18T10:27:40Z</time>
      </trkpt>
      <trkpt lat="44.91627" lon="3.48513">
        <ele>1095.0788574219</ele>
        <time>2019-08-18T10:27:44Z</time>
      </trkpt>
      <trkpt lat="44.91634" lon="3.48527">
        <ele>1093.6369628906</ele>
        <time>2019-08-18T10:27:46Z</time>
      </trkpt>
      <trkpt lat="44.91644" lon="3.4854">
        <ele>1091.7143554688</ele>
        <time>2019-08-18T10:27:48Z</time>
      </trkpt>
      <trkpt lat="44.91655" lon="3.48549">
        <ele>1091.7143554688</ele>
        <time>2019-08-18T10:27:50Z</time>
      </trkpt>
      <trkpt lat="44.91716" lon="3.48583">
        <ele>1092.1950683594</ele>
        <time>2019-08-18T10:28:03Z</time>
      </trkpt>
      <trkpt lat="44.91735" lon="3.48587">
        <ele>1093.15625</ele>
        <time>2019-08-18T10:28:07Z</time>
      </trkpt>
      <trkpt lat="44.91759" lon="3.48582">
        <ele>1094.5981445312</ele>
        <time>2019-08-18T10:28:13Z</time>
      </trkpt>
      <trkpt lat="44.91789" lon="3.48579">
        <ele>1097.0014648438</ele>
        <time>2019-08-18T10:28:25Z</time>
      </trkpt>
      <trkpt lat="44.91813" lon="3.48561">
        <ele>1094.1176757812</ele>
        <time>2019-08-18T10:28:35Z</time>
      </trkpt>
      <trkpt lat="44.91846" lon="3.48595">
        <ele>1093.15625</ele>
        <time>2019-08-18T10:28:47Z</time>
      </trkpt>
      <trkpt lat="44.91854" lon="3.48611">
        <ele>1093.15625</ele>
        <time>2019-08-18T10:28:50Z</time>
      </trkpt>
      <trkpt lat="44.9187" lon="3.48656">
        <ele>1093.15625</ele>
        <time>2019-08-18T10:29:00Z</time>
      </trkpt>
      <trkpt lat="44.91868" lon="3.48695">
        <ele>1092.1950683594</ele>
        <time>2019-08-18T10:29:08Z</time>
      </trkpt>
      <trkpt lat="44.91873" lon="3.48707">
        <ele>1093.6369628906</ele>
        <time>2019-08-18T10:29:11Z</time>
      </trkpt>
      <trkpt lat="44.91881" lon="3.48731">
        <ele>1095.0788574219</ele>
        <time>2019-08-18T10:29:18Z</time>
      </trkpt>
      <trkpt lat="44.91895" lon="3.48752">
        <ele>1097.962890625</ele>
        <time>2019-08-18T10:29:31Z</time>
      </trkpt>
      <trkpt lat="44.91896" lon="3.48753">
        <ele>1097.962890625</ele>
        <time>2019-08-18T10:29:32Z</time>
      </trkpt>
      <trkpt lat="44.91899" lon="3.48756">
        <ele>1097.962890625</ele>
        <time>2019-08-18T10:29:34Z</time>
      </trkpt>
      <trkpt lat="44.91907" lon="3.48754">
        <ele>1099.4047851562</ele>
        <time>2019-08-18T10:29:40Z</time>
      </trkpt>
      <trkpt lat="44.91915" lon="3.48738">
        <ele>1099.8854980469</ele>
        <time>2019-08-18T10:29:52Z</time>
      </trkpt>
      <trkpt lat="44.91914" lon="3.48735">
        <ele>1099.8854980469</ele>
        <time>2019-08-18T10:29:54Z</time>
      </trkpt>
      <trkpt lat="44.91913" lon="3.48727">
        <ele>1100.3664550781</ele>
        <time>2019-08-18T10:29:58Z</time>
      </trkpt>
      <trkpt lat="44.91913" lon="3.4872">
        <ele>1101.8083496094</ele>
        <time>2019-08-18T10:30:02Z</time>
      </trkpt>
      <trkpt lat="44.91915" lon="3.48715">
        <ele>1102.2888183594</ele>
        <time>2019-08-18T10:30:06Z</time>
      </trkpt>
      <trkpt lat="44.91915" lon="3.48708">
        <ele>1103.2502441406</ele>
        <time>2019-08-18T10:30:10Z</time>
      </trkpt>
      <trkpt lat="44.91916" lon="3.48704">
        <ele>1103.2502441406</ele>
        <time>2019-08-18T10:30:12Z</time>
      </trkpt>
      <trkpt lat="44.91916" lon="3.48696">
        <ele>1104.2116699219</ele>
        <time>2019-08-18T10:30:17Z</time>
      </trkpt>
      <trkpt lat="44.91917" lon="3.48692">
        <ele>1104.6921386719</ele>
        <time>2019-08-18T10:30:28Z</time>
      </trkpt>
      <trkpt lat="44.91924" lon="3.48688">
        <ele>1104.2116699219</ele>
        <time>2019-08-18T10:30:34Z</time>
      </trkpt>
      <trkpt lat="44.91932" lon="3.48696">
        <ele>1103.7309570312</ele>
        <time>2019-08-18T10:30:39Z</time>
      </trkpt>
      <trkpt lat="44.91945" lon="3.48702">
        <ele>1106.1340332031</ele>
        <time>2019-08-18T10:30:46Z</time>
      </trkpt>
      <trkpt lat="44.91973" lon="3.48693">
        <ele>1107.576171875</ele>
        <time>2019-08-18T10:31:00Z</time>
      </trkpt>
      <trkpt lat="44.91996" lon="3.48679">
        <ele>1109.4987792969</ele>
        <time>2019-08-18T10:31:12Z</time>
      </trkpt>
      <trkpt lat="44.92023" lon="3.48649">
        <ele>1112.3825683594</ele>
        <time>2019-08-18T10:31:31Z</time>
      </trkpt>
      <trkpt lat="44.92033" lon="3.48677">
        <ele>1114.7858886719</ele>
        <time>2019-08-18T10:31:45Z</time>
      </trkpt>
      <trkpt lat="44.92043" lon="3.4867">
        <ele>1114.7858886719</ele>
        <time>2019-08-18T10:31:53Z</time>
      </trkpt>
    </trkseg>
  </trk>
</gpx>